Wetterdaten: Donnerstag, 20.06.2019
Datum Zeit Temp. Aussen Temp. o. S. +5cm Feuchte Auss Luftdruck Regen Sonnenschein Regendauer Solar Windben Empfang
20.06.2019 00:00 17,3 C 16,1 C 15,6 C 97 % 1009,0 hPa 0,0 l/m 0 min 0 min 0 W/m 3,2 km/h (1 Bft) 93,62 %
20.06.2019 00:02 17,3 C 16,1 C 15,6 C 97 % 1008,9 hPa 0,0 l/m 0 min 0 min 0 W/m 3,2 km/h (1 Bft) 90,48 %
20.06.2019 00:04 17,3 C 16,1 C 15,6 C 97 % 1008,9 hPa 0,0 l/m 0 min 0 min 0 W/m 3,2 km/h (1 Bft) 93,48 %
20.06.2019 00:08 17,3 C 16,1 C 15,6 C 97 % 1008,9 hPa 0,0 l/m 0 min 0 min 0 W/m 0,0 km/h (0 Bft) 94,68 %
20.06.2019 00:10 17,3 C 16,1 C 16,1 C 97 % 1008,8 hPa 0,0 l/m 0 min 0 min 0 W/m 0,0 km/h (0 Bft) 95,74 %
20.06.2019 00:12 17,3 C 16,1 C 15,6 C 97 % 1008,7 hPa 0,0 l/m 0 min 0 min 0 W/m 0,0 km/h (0 Bft) 95,74 %
20.06.2019 00:14 17,3 C 16,1 C 15,6 C 97 % 1008,7 hPa 0,0 l/m 0 min 0 min 0 W/m 3,2 km/h (1 Bft) 95,74 %
20.06.2019 00:16 17,3 C 16,1 C 15,6 C 97 % 1008,7 hPa 0,0 l/m 0 min 0 min 0 W/m 3,2 km/h (1 Bft) 95,65 %
20.06.2019 00:18 17,3 C 16,1 C 15,6 C 97 % 1008,7 hPa 0,0 l/m 0 min 0 min 0 W/m 0,0 km/h (0 Bft) 97,87 %
20.06.2019 00:20 17,3 C 16,1 C 15,6 C 97 % 1008,8 hPa 0,0 l/m 0 min 0 min 0 W/m 0,0 km/h (0 Bft) 97,87 %
20.06.2019 00:22 17,3 C 16,1 C 15,6 C 97 % 1008,8 hPa 0,0 l/m 0 min 0 min 0 W/m 3,2 km/h (1 Bft) 95,74 %
20.06.2019 00:24 17,3 C 16,1 C 15,6 C 97 % 1008,9 hPa 0,0 l/m 0 min 0 min 0 W/m 3,2 km/h (1 Bft) 95,74 %
20.06.2019 00:26 17,3 C 16,1 C 15,6 C 97 % 1008,9 hPa 0,0 l/m 0 min 0 min 0 W/m 0,0 km/h (0 Bft) 100,00 %
20.06.2019 00:28 17,3 C 16,1 C 15,6 C 97 % 1008,8 hPa 0,0 l/m 0 min 0 min 0 W/m 3,2 km/h (1 Bft) 100,00 %
20.06.2019 00:30 17,3 C 16,1 C 15,6 C 97 % 1008,8 hPa 0,0 l/m 0 min 0 min 0 W/m 3,2 km/h (1 Bft) 97,87 %
20.06.2019 00:32 17,3 C 16,1 C 15,6 C 97 % 1008,7 hPa 0,0 l/m 0 min 0 min 0 W/m 3,2 km/h (1 Bft) 100,00 %
20.06.2019 00:34 17,3 C 16,1 C 15,6 C 97 % 1008,7 hPa 0,0 l/m 0 min 0 min 0 W/m 3,2 km/h (1 Bft) 100,00 %
20.06.2019 00:36 17,3 C 16,1 C 15,6 C 97 % 1008,8 hPa 0,0 l/m 0 min 0 min 0 W/m 3,2 km/h (1 Bft) 100,00 %
20.06.2019 00:38 17,3 C 16,1 C 15,6 C 97 % 1008,8 hPa 0,0 l/m 0 min 0 min 0 W/m 3,2 km/h (1 Bft) 100,00 %
20.06.2019 00:40 17,3 C 16,1 C 15,6 C 97 % 1008,8 hPa 0,0 l/m 0 min 0 min 0 W/m 3,2 km/h (1 Bft) 100,00 %
20.06.2019 00:42 17,3 C 16,1 C 15,6 C 97 % 1008,8 hPa 0,0 l/m 0 min 0 min 0 W/m 3,2 km/h (1 Bft) 100,00 %
20.06.2019 00:44 17,2 C 16,1 C 15,6 C 97 % 1008,8 hPa 0,0 l/m 0 min 0 min 0 W/m 9,7 km/h (2 Bft) 100,00 %
20.06.2019 00:46 17,2 C 16,1 C 15,6 C 97 % 1008,8 hPa 0,0 l/m 0 min 2 min 0 W/m 0,0 km/h (0 Bft) 100,00 %
20.06.2019 00:48 17,2 C 16,1 C 15,6 C 97 % 1008,6 hPa 0,0 l/m 0 min 2 min 0 W/m 3,2 km/h (1 Bft) 100,00 %
20.06.2019 00:50 17,2 C 16,1 C 15,6 C 97 % 1008,7 hPa 0,0 l/m 0 min 2 min 0 W/m 0,0 km/h (0 Bft) 100,00 %
20.06.2019 00:52 17,2 C 16,1 C 15,6 C 97 % 1008,8 hPa 0,0 l/m 0 min 2 min 0 W/m 3,2 km/h (1 Bft) 97,87 %
20.06.2019 00:54 17,2 C 16,1 C 15,6 C 97 % 1008,9 hPa 0,0 l/m 0 min 2 min 0 W/m 6,4 km/h (2 Bft) 100,00 %
20.06.2019 00:56 17,2 C 16,1 C 15,6 C 97 % 1008,9 hPa 0,0 l/m 0 min 2 min 0 W/m 0,0 km/h (0 Bft) 97,87 %
20.06.2019 00:58 17,2 C 16,1 C 15,6 C 97 % 1008,9 hPa 0,0 l/m 0 min 2 min 0 W/m 9,7 km/h (2 Bft) 100,00 %
20.06.2019 01:00 17,2 C 16,1 C 15,6 C 97 % 1008,9 hPa 0,0 l/m 0 min 2 min 0 W/m 3,2 km/h (1 Bft) 100,00 %
20.06.2019 01:02 17,2 C 16,1 C 15,6 C 97 % 1008,8 hPa 0,0 l/m 0 min 0 min 0 W/m 3,2 km/h (1 Bft) 100,00 %
20.06.2019 01:04 17,2 C 16,1 C 15,6 C 97 % 1008,8 hPa 0,0 l/m 0 min 0 min 0 W/m 6,4 km/h (2 Bft) 97,87 %
20.06.2019 01:06 17,2 C 15,6 C 15,6 C 97 % 1008,7 hPa 0,0 l/m 0 min 0 min 0 W/m 3,2 km/h (1 Bft) 100,00 %
20.06.2019 01:08 17,2 C 15,6 C 15,6 C 97 % 1008,8 hPa 0,0 l/m 0 min 2 min 0 W/m 6,4 km/h (2 Bft) 100,00 %
20.06.2019 01:10 17,2 C 15,6 C 15,6 C 97 % 1008,8 hPa 0,0 l/m 0 min 0 min 0 W/m 0,0 km/h (0 Bft) 100,00 %
20.06.2019 01:12 17,2 C 15,6 C 15,6 C 97 % 1008,8 hPa 0,0 l/m 0 min 0 min 0 W/m 0,0 km/h (0 Bft) 100,00 %
20.06.2019 01:14 17,2 C 15,6 C 15,6 C 97 % 1008,8 hPa 0,0 l/m 0 min 0 min 0 W/m 0,0 km/h (0 Bft) 100,00 %
20.06.2019 01:16 17,1 C 15,6 C 15,6 C 97 % 1008,8 hPa 0,0 l/m 0 min 0 min 0 W/m 0,0 km/h (0 Bft) 100,00 %
20.06.2019 01:18 17,1 C 15,6 C 15,6 C 97 % 1008,9 hPa 0,0 l/m 0 min 0 min 0 W/m 0,0 km/h (0 Bft) 100,00 %
20.06.2019 01:20 17,1 C 15,6 C 15,6 C 97 % 1008,8 hPa 0,0 l/m 0 min 0 min 0 W/m 0,0 km/h (0 Bft) 100,00 %
20.06.2019 01:22 17,1 C 15,6 C 15,6 C 97 % 1008,8 hPa 0,0 l/m 0 min 0 min 0 W/m 0,0 km/h (0 Bft) 100,00 %
20.06.2019 01:24 17,1 C 15,6 C 15,6 C 97 % 1008,8 hPa 0,0 l/m 0 min 0 min 0 W/m 0,0 km/h (0 Bft) 100,00 %
20.06.2019 01:26 17,1 C 15,6 C 15,6 C 97 % 1008,8 hPa 0,0 l/m 0 min 0 min 0 W/m 0,0 km/h (0 Bft) 100,00 %
20.06.2019 01:28 17,1 C 15,6 C 15,0 C 97 % 1008,8 hPa 0,0 l/m 0 min 0 min 0 W/m 0,0 km/h (0 Bft) 100,00 %
20.06.2019 01:30 17,0 C 15,6 C 15,0 C 97 % 1008,8 hPa 0,0 l/m 0 min 0 min 0 W/m 0,0 km/h (0 Bft) 97,87 %
20.06.2019 01:32 17,0 C 15,6 C 15,0 C 97 % 1008,8 hPa 0,0 l/m 0 min 0 min 0 W/m 3,2 km/h (1 Bft) 97,87 %
20.06.2019 01:34 17,0 C 15,6 C 15,0 C 97 % 1008,7 hPa 0,0 l/m 0 min 0 min 0 W/m 3,2 km/h (1 Bft) 100,00 %
20.06.2019 01:36 17,0 C 15,6 C 15,0 C 97 % 1008,7 hPa 0,0 l/m 0 min 0 min 0 W/m 3,2 km/h (1 Bft) 100,00 %
20.06.2019 01:38 16,9 C 15,6 C 15,0 C 97 % 1008,7 hPa 0,0 l/m 0 min 0 min 0 W/m 3,2 km/h (1 Bft) 100,00 %
20.06.2019 01:40 16,9 C 15,6 C 15,0 C 97 % 1008,8 hPa 0,0 l/m 0 min 0 min 0 W/m 3,2 km/h (1 Bft) 100,00 %
20.06.2019 01:42 16,9 C 15,6 C 15,0 C 97 % 1008,8 hPa 0,0 l/m 0 min 0 min 0 W/m 0,0 km/h (0 Bft) 100,00 %
20.06.2019 01:44 16,9 C 15,6 C 15,0 C 97 % 1008,8 hPa 0,0 l/m 0 min 0 min 0 W/m 0,0 km/h (0 Bft) 100,00 %
20.06.2019 01:46 16,9 C 15,6 C 15,0 C 97 % 1008,9 hPa 0,0 l/m 0 min 0 min 0 W/m 0,0 km/h (0 Bft) 100,00 %
20.06.2019 01:48 16,9 C 15,6 C 15,0 C 97 % 1008,9 hPa 0,0 l/m 0 min 0 min 0 W/m 0,0 km/h (0 Bft) 100,00 %
20.06.2019 01:50 16,8 C 15,6 C 15,0 C 97 % 1008,9 hPa 0,0 l/m 0 min 0 min 0 W/m 0,0 km/h (0 Bft) 100,00 %
20.06.2019 01:52 16,8 C 15,6 C 15,0 C 97 % 1008,9 hPa 0,0 l/m 0 min 0 min 0 W/m 0,0 km/h (0 Bft) 100,00 %
20.06.2019 01:54 16,8 C 15,6 C 15,0 C 97 % 1008,9 hPa 0,0 l/m 0 min 0 min 0 W/m 0,0 km/h (0 Bft) 100,00 %
20.06.2019 01:56 16,8 C 15,6 C 15,0 C 97 % 1008,9 hPa 0,0 l/m 0 min 0 min 0 W/m 0,0 km/h (0 Bft) 100,00 %
20.06.2019 01:58 16,8 C 15,6 C 15,0 C 97 % 1008,9 hPa 0,0 l/m 0 min 0 min 0 W/m 0,0 km/h (0 Bft) 97,87 %
20.06.2019 02:00 16,8 C 15,6 C 15,0 C 97 % 1008,9 hPa 0,0 l/m 0 min 0 min 0 W/m 0,0 km/h (0 Bft) 100,00 %
20.06.2019 02:02 16,8 C 15,6 C 15,0 C 97 % 1008,9 hPa 0,0 l/m 0 min 0 min 0 W/m 0,0 km/h (0 Bft) 100,00 %
20.06.2019 02:04 16,8 C 15,6 C 15,0 C 97 % 1008,8 hPa 0,0 l/m 0 min 0 min 0 W/m 0,0 km/h (0 Bft) 100,00 %
20.06.2019 02:06 16,7 C 15,0 C 15,0 C 97 % 1008,8 hPa 0,0 l/m 0 min 0 min 0 W/m 0,0 km/h (0 Bft) 95,74 %
20.06.2019 02:08 16,7 C 15,0 C 15,0 C 97 % 1008,8 hPa 0,0 l/m 0 min 0 min 0 W/m 0,0 km/h (0 Bft) 97,87 %
20.06.2019 02:10 16,7 C 15,0 C 15,0 C 97 % 1008,7 hPa 0,0 l/m 0 min 0 min 0 W/m 0,0 km/h (0 Bft) 100,00 %
20.06.2019 02:12 16,7 C 15,0 C 15,0 C 97 % 1008,7 hPa 0,0 l/m 0 min 0 min 0 W/m 0,0 km/h (0 Bft) 95,65 %
20.06.2019 02:14 16,7 C 15,0 C 15,0 C 97 % 1008,8 hPa 0,0 l/m 0 min 0 min 0 W/m 0,0 km/h (0 Bft) 95,74 %
20.06.2019 02:16 16,7 C 15,0 C 15,0 C 97 % 1008,9 hPa 0,0 l/m 0 min 0 min 0 W/m 0,0 km/h (0 Bft) 93,62 %
20.06.2019 02:18 16,7 C 15,0 C 15,0 C 97 % 1008,9 hPa 0,0 l/m 0 min 0 min 0 W/m 0,0 km/h (0 Bft) 93,62 %
20.06.2019 02:20 16,6 C 15,0 C 15,0 C 97 % 1008,9 hPa 0,0 l/m 0 min 0 min 0 W/m 0,0 km/h (0 Bft) 95,74 %
20.06.2019 02:22 16,6 C 15,0 C 15,0 C 97 % 1008,8 hPa 0,0 l/m 0 min 0 min 0 W/m 0,0 km/h (0 Bft) 93,62 %
20.06.2019 02:24 16,6 C 15,0 C 15,0 C 97 % 1008,8 hPa 0,0 l/m 0 min 0 min 0 W/m 0,0 km/h (0 Bft) 95,65 %
20.06.2019 02:26 16,6 C 15,0 C 15,0 C 97 % 1008,9 hPa 0,0 l/m 0 min 0 min 0 W/m 0,0 km/h (0 Bft) 95,74 %
20.06.2019 02:28 16,6 C 15,6 C 15,0 C 97 % 1008,9 hPa 0,0 l/m 0 min 0 min 0 W/m 0,0 km/h (0 Bft) 93,62 %
20.06.2019 02:30 16,6 C 15,6 C 15,0 C 97 % 1008,9 hPa 0,0 l/m 0 min 0 min 0 W/m 0,0 km/h (0 Bft) 93,62 %
20.06.2019 02:32 16,6 C 15,6 C 15,0 C 97 % 1008,8 hPa 0,0 l/m 0 min 0 min 0 W/m 0,0 km/h (0 Bft) 93,62 %
20.06.2019 02:34 16,6 C 15,6 C 15,0 C 97 % 1008,8 hPa 0,0 l/m 0 min 0 min 0 W/m 0,0 km/h (0 Bft) 93,62 %
20.06.2019 02:36 16,6 C 15,6 C 15,0 C 97 % 1008,9 hPa 0,0 l/m 0 min 0 min 0 W/m 0,0 km/h (0 Bft) 91,30 %
20.06.2019 02:38 16,6 C 15,6 C 15,0 C 97 % 1008,9 hPa 0,0 l/m 0 min 0 min 0 W/m 3,2 km/h (1 Bft) 95,74 %
20.06.2019 02:40 16,6 C 15,6 C 15,0 C 97 % 1008,8 hPa 0,0 l/m 0 min 0 min 0 W/m 6,4 km/h (2 Bft) 91,49 %
20.06.2019 02:42 16,6 C 15,6 C 15,0 C 97 % 1008,8 hPa 0,0 l/m 0 min 0 min 0 W/m 6,4 km/h (2 Bft) 91,49 %
20.06.2019 02:44 16,6 C 15,6 C 15,0 C 97 % 1008,9 hPa 0,0 l/m 0 min 0 min 0 W/m 9,7 km/h (2 Bft) 93,62 %
20.06.2019 02:46 16,6 C 15,0 C 15,0 C 97 % 1008,9 hPa 0,0 l/m 0 min 0 min 0 W/m 3,2 km/h (1 Bft) 93,62 %
20.06.2019 02:48 16,5 C 15,0 C 15,0 C 97 % 1008,9 hPa 0,0 l/m 0 min 0 min 0 W/m 6,4 km/h (2 Bft) 93,48 %
20.06.2019 02:50 16,5 C 15,0 C 15,0 C 97 % 1008,9 hPa 0,0 l/m 0 min 0 min 0 W/m 3,2 km/h (1 Bft) 95,74 %
20.06.2019 02:52 16,5 C 15,0 C 15,0 C 97 % 1009,0 hPa 0,0 l/m 0 min 0 min 0 W/m 3,2 km/h (1 Bft) 93,62 %
20.06.2019 02:54 16,5 C 15,0 C 15,0 C 97 % 1009,1 hPa 0,0 l/m 0 min 0 min 0 W/m 3,2 km/h (1 Bft) 95,74 %
20.06.2019 02:56 16,5 C 15,6 C 15,0 C 97 % 1009,0 hPa 0,0 l/m 0 min 0 min 0 W/m 3,2 km/h (1 Bft) 93,62 %
20.06.2019 02:58 16,5 C 15,6 C 15,0 C 97 % 1009,0 hPa 0,0 l/m 0 min 0 min 0 W/m 3,2 km/h (1 Bft) 93,48 %
20.06.2019 03:00 16,5 C 15,0 C 15,0 C 97 % 1009,0 hPa 0,0 l/m 0 min 0 min 0 W/m 0,0 km/h (0 Bft) 95,74 %
20.06.2019 03:02 16,5 C 15,6 C 15,0 C 97 % 1009,0 hPa 0,0 l/m 0 min 0 min 0 W/m 3,2 km/h (1 Bft) 93,62 %
20.06.2019 03:04 16,5 C 15,6 C 15,0 C 97 % 1009,1 hPa 0,0 l/m 0 min 0 min 0 W/m 6,4 km/h (2 Bft) 95,74 %
20.06.2019 03:06 16,5 C 15,6 C 15,0 C 97 % 1009,1 hPa 0,0 l/m 0 min 0 min 0 W/m 3,2 km/h (1 Bft) 93,62 %
20.06.2019 03:08 16,5 C 15,6 C 15,0 C 97 % 1009,2 hPa 0,0 l/m 0 min 0 min 0 W/m 6,4 km/h (2 Bft) 93,62 %
20.06.2019 03:10 16,5 C 15,6 C 15,0 C 97 % 1009,2 hPa 0,0 l/m 0 min 0 min 0 W/m 6,4 km/h (2 Bft) 95,65 %
20.06.2019 03:12 16,5 C 15,6 C 15,0 C 97 % 1009,2 hPa 0,0 l/m 0 min 0 min 0 W/m 0,0 km/h (0 Bft) 100,00 %
20.06.2019 03:14 16,5 C 15,6 C 15,0 C 97 % 1009,2 hPa 0,0 l/m 0 min 0 min 0 W/m 3,2 km/h (1 Bft) 100,00 %
20.06.2019 03:16 16,5 C 15,6 C 15,0 C 97 % 1009,2 hPa 0,0 l/m 0 min 0 min 0 W/m 3,2 km/h (1 Bft) 100,00 %
20.06.2019 03:18 16,5 C 15,6 C 15,0 C 97 % 1009,3 hPa 0,0 l/m 0 min 0 min 0 W/m 9,7 km/h (2 Bft) 100,00 %
20.06.2019 03:20 16,5 C 15,6 C 15,0 C 97 % 1009,3 hPa 0,0 l/m 0 min 0 min 0 W/m 9,7 km/h (2 Bft) 97,87 %
20.06.2019 03:22 16,5 C 15,6 C 15,0 C 97 % 1009,2 hPa 0,0 l/m 0 min 0 min 0 W/m 3,2 km/h (1 Bft) 100,00 %
20.06.2019 03:24 16,5 C 15,6 C 15,0 C 97 % 1009,3 hPa 0,0 l/m 0 min 0 min 0 W/m 3,2 km/h (1 Bft) 100,00 %
20.06.2019 03:26 16,5 C 15,6 C 15,0 C 97 % 1009,3 hPa 0,0 l/m 0 min 0 min 0 W/m 0,0 km/h (0 Bft) 100,00 %
20.06.2019 03:28 16,6 C 15,6 C 15,0 C 97 % 1009,3 hPa 0,0 l/m 0 min 0 min 0 W/m 0,0 km/h (0 Bft) 100,00 %
20.06.2019 03:30 16,6 C 15,6 C 15,0 C 97 % 1009,3 hPa 0,0 l/m 0 min 0 min 0 W/m 6,4 km/h (2 Bft) 97,87 %
20.06.2019 03:32 16,6 C 15,6 C 15,0 C 97 % 1009,3 hPa 0,0 l/m 0 min 0 min 0 W/m 0,0 km/h (0 Bft) 100,00 %
20.06.2019 03:34 16,6 C 15,6 C 15,0 C 97 % 1009,3 hPa 0,0 l/m 0 min 0 min 0 W/m 6,4 km/h (2 Bft) 100,00 %
20.06.2019 03:36 16,6 C 15,6 C 15,0 C 97 % 1009,3 hPa 0,0 l/m 0 min 0 min 0 W/m 6,4 km/h (2 Bft) 100,00 %
20.06.2019 03:38 16,6 C 15,6 C 15,0 C 97 % 1009,3 hPa 0,0 l/m 0 min 0 min 0 W/m 3,2 km/h (1 Bft) 100,00 %
20.06.2019 03:40 16,6 C 15,6 C 15,0 C 97 % 1009,3 hPa 0,0 l/m 0 min 0 min 0 W/m 6,4 km/h (2 Bft) 100,00 %
20.06.2019 03:42 16,6 C 15,6 C 15,0 C 97 % 1009,3 hPa 0,0 l/m 0 min 0 min 0 W/m 3,2 km/h (1 Bft) 100,00 %
20.06.2019 03:44 16,6 C 15,6 C 15,0 C 97 % 1009,3 hPa 0,0 l/m 0 min 0 min 0 W/m 3,2 km/h (1 Bft) 100,00 %
20.06.2019 03:46 16,6 C 15,6 C 15,0 C 97 % 1009,4 hPa 0,0 l/m 0 min 0 min 0 W/m 3,2 km/h (1 Bft) 100,00 %
20.06.2019 03:48 16,6 C 15,6 C 15,0 C 97 % 1009,4 hPa 0,0 l/m 0 min 0 min 0 W/m 0,0 km/h (0 Bft) 97,87 %
20.06.2019 03:50 16,6 C 15,6 C 15,0 C 97 % 1009,4 hPa 0,0 l/m 0 min 0 min 0 W/m 0,0 km/h (0 Bft) 100,00 %
20.06.2019 03:52 16,6 C 15,6 C 15,6 C 97 % 1009,4 hPa 0,0 l/m 0 min 0 min 0 W/m 3,2 km/h (1 Bft) 100,00 %
20.06.2019 03:54 16,6 C 15,6 C 15,0 C 97 % 1009,4 hPa 0,0 l/m 0 min 0 min 0 W/m 3,2 km/h (1 Bft) 97,87 %
20.06.2019 03:56 16,6 C 15,6 C 15,0 C 97 % 1009,4 hPa 0,0 l/m 0 min 0 min 0 W/m 3,2 km/h (1 Bft) 100,00 %
20.06.2019 03:58 16,6 C 15,6 C 15,0 C 97 % 1009,4 hPa 0,0 l/m 0 min 0 min 0 W/m 0,0 km/h (0 Bft) 100,00 %
20.06.2019 04:00 16,6 C 15,6 C 15,0 C 97 % 1009,5 hPa 0,0 l/m 0 min 0 min 0 W/m 0,0 km/h (0 Bft) 100,00 %
20.06.2019 04:02 16,6 C 15,6 C 15,0 C 97 % 1009,5 hPa 0,0 l/m 0 min 0 min 0 W/m 0,0 km/h (0 Bft) 96,55 %
20.06.2019 04:04 16,6 C 15,6 C 15,0 C 97 % 1009,6 hPa 0,0 l/m 0 min 0 min 0 W/m 3,2 km/h (1 Bft) 95,74 %
20.06.2019 04:06 16,6 C 15,6 C 15,0 C 97 % 1009,6 hPa 0,0 l/m 0 min 0 min 0 W/m 9,7 km/h (2 Bft) 100,00 %
20.06.2019 04:08 16,6 C 15,6 C 15,0 C 97 % 1009,6 hPa 0,0 l/m 0 min 0 min 0 W/m 3,2 km/h (1 Bft) 100,00 %
20.06.2019 04:10 16,6 C 15,6 C 15,0 C 97 % 1009,6 hPa 0,0 l/m 0 min 0 min 0 W/m 6,4 km/h (2 Bft) 100,00 %
20.06.2019 04:12 16,6 C 15,6 C 15,0 C 97 % 1009,7 hPa 0,0 l/m 0 min 0 min 0 W/m 6,4 km/h (2 Bft) 100,00 %
20.06.2019 04:14 16,6 C 15,6 C 15,0 C 97 % 1009,7 hPa 0,0 l/m 0 min 0 min 0 W/m 9,7 km/h (2 Bft) 100,00 %
20.06.2019 04:16 16,6 C 15,6 C 15,0 C 97 % 1009,7 hPa 0,0 l/m 0 min 0 min 0 W/m 6,4 km/h (2 Bft) 100,00 %
20.06.2019 04:18 16,6 C 15,6 C 15,0 C 97 % 1009,7 hPa 0,0 l/m 0 min 0 min 0 W/m 6,4 km/h (2 Bft) 100,00 %
20.06.2019 04:20 16,6 C 15,6 C 15,0 C 97 % 1009,7 hPa 0,0 l/m 0 min 0 min 0 W/m 12,9 km/h (3 Bft) 100,00 %
20.06.2019 04:22 16,6 C 15,6 C 15,0 C 97 % 1009,7 hPa 0,0 l/m 0 min 0 min 0 W/m 19,3 km/h (3 Bft) 100,00 %
20.06.2019 04:24 16,6 C 15,6 C 15,0 C 97 % 1009,7 hPa 0,0 l/m 0 min 0 min 0 W/m 12,9 km/h (3 Bft) 100,00 %
20.06.2019 04:26 16,6 C 15,6 C 15,0 C 97 % 1009,6 hPa 0,0 l/m 0 min 0 min 0 W/m 6,4 km/h (2 Bft) 97,87 %
20.06.2019 04:28 16,6 C 15,6 C 15,0 C 97 % 1009,7 hPa 0,0 l/m 0 min 0 min 0 W/m 9,7 km/h (2 Bft) 100,00 %
20.06.2019 04:30 16,6 C 15,6 C 15,0 C 97 % 1009,7 hPa 0,0 l/m 0 min 0 min 0 W/m 6,4 km/h (2 Bft) 100,00 %
20.06.2019 04:32 16,6 C 15,6 C 15,0 C 97 % 1009,7 hPa 0,0 l/m 0 min 0 min 0 W/m 6,4 km/h (2 Bft) 100,00 %
20.06.2019 04:34 16,6 C 15,6 C 15,0 C 97 % 1009,8 hPa 0,0 l/m 0 min 0 min 0 W/m 12,9 km/h (3 Bft) 100,00 %
20.06.2019 04:36 16,6 C 15,6 C 15,0 C 97 % 1009,8 hPa 0,0 l/m 0 min 0 min 0 W/m 9,7 km/h (2 Bft) 97,87 %
20.06.2019 04:38 16,6 C 15,6 C 15,0 C 97 % 1009,9 hPa 0,0 l/m 0 min 0 min 0 W/m 12,9 km/h (3 Bft) 100,00 %
20.06.2019 04:40 16,6 C 15,6 C 15,0 C 97 % 1009,9 hPa 0,0 l/m 0 min 0 min 0 W/m 3,2 km/h (1 Bft) 100,00 %
20.06.2019 04:42 16,6 C 15,6 C 15,0 C 97 % 1009,9 hPa 0,0 l/m 0 min 0 min 0 W/m 3,2 km/h (1 Bft) 100,00 %
20.06.2019 04:44 16,6 C 15,6 C 15,0 C 97 % 1009,9 hPa 0,0 l/m 0 min 0 min 0 W/m 6,4 km/h (2 Bft) 100,00 %
20.06.2019 04:46 16,6 C 15,6 C 15,0 C 97 % 1009,9 hPa 0,0 l/m 0 min 0 min 0 W/m 3,2 km/h (1 Bft) 97,87 %
20.06.2019 04:48 16,6 C 15,6 C 15,0 C 97 % 1009,8 hPa 0,0 l/m 0 min 0 min 0 W/m 0,0 km/h (0 Bft) 97,87 %
20.06.2019 04:50 16,6 C 15,6 C 15,0 C 97 % 1009,9 hPa 0,0 l/m 0 min 0 min 0 W/m 6,4 km/h (2 Bft) 95,74 %
20.06.2019 04:52 16,6 C 15,6 C 15,0 C 97 % 1009,8 hPa 0,0 l/m 0 min 0 min 0 W/m 6,4 km/h (2 Bft) 97,87 %
20.06.2019 04:54 16,5 C 15,6 C 15,0 C 97 % 1009,9 hPa 0,0 l/m 0 min 0 min 0 W/m 6,4 km/h (2 Bft) 95,74 %
20.06.2019 04:56 16,5 C 15,6 C 15,0 C 97 % 1010,0 hPa 0,0 l/m 0 min 0 min 0 W/m 6,4 km/h (2 Bft) 97,83 %
20.06.2019 04:58 16,5 C 15,6 C 15,0 C 97 % 1009,9 hPa 0,0 l/m 0 min 0 min 0 W/m 6,4 km/h (2 Bft) 95,74 %
20.06.2019 05:00 16,5 C 15,6 C 15,0 C 97 % 1009,9 hPa 0,0 l/m 0 min 0 min 0 W/m 3,2 km/h (1 Bft) 97,87 %
20.06.2019 05:02 16,5 C 15,6 C 15,0 C 97 % 1009,9 hPa 0,0 l/m 0 min 0 min 0 W/m 3,2 km/h (1 Bft) 95,74 %
20.06.2019 05:04 16,4 C 15,0 C 15,0 C 97 % 1009,9 hPa 0,0 l/m 0 min 0 min 0 W/m 3,2 km/h (1 Bft) 97,87 %
20.06.2019 05:06 16,4 C 15,0 C 15,0 C 97 % 1009,9 hPa 0,0 l/m 0 min 0 min 0 W/m 6,4 km/h (2 Bft) 97,87 %
20.06.2019 05:08 16,4 C 15,0 C 15,0 C 97 % 1010,0 hPa 0,0 l/m 0 min 0 min 0 W/m 3,2 km/h (1 Bft) 97,83 %
20.06.2019 05:10 16,4 C 15,0 C 15,0 C 97 % 1009,9 hPa 0,0 l/m 0 min 0 min 0 W/m 0,0 km/h (0 Bft) 97,87 %
20.06.2019 05:12 16,4 C 15,0 C 15,0 C 97 % 1009,9 hPa 0,0 l/m 0 min 0 min 0 W/m 0,0 km/h (0 Bft) 95,74 %
20.06.2019 05:14 16,4 C 15,0 C 15,0 C 97 % 1009,9 hPa 0,0 l/m 0 min 0 min 0 W/m 6,4 km/h (2 Bft) 93,62 %
20.06.2019 05:16 16,4 C 15,0 C 15,0 C 97 % 1010,0 hPa 0,0 l/m 0 min 0 min 0 W/m 6,4 km/h (2 Bft) 97,87 %
20.06.2019 05:18 16,3 C 15,0 C 15,0 C 97 % 1010,0 hPa 0,0 l/m 0 min 0 min 0 W/m 6,4 km/h (2 Bft) 97,83 %
20.06.2019 05:20 16,3 C 15,0 C 15,0 C 97 % 1010,1 hPa 0,0 l/m 0 min 0 min 0 W/m 6,4 km/h (2 Bft) 97,87 %
20.06.2019 05:22 16,3 C 15,0 C 15,0 C 97 % 1010,0 hPa 0,0 l/m 0 min 0 min 0 W/m 6,4 km/h (2 Bft) 93,62 %
20.06.2019 05:24 16,3 C 15,0 C 15,0 C 97 % 1010,1 hPa 0,0 l/m 0 min 0 min 0 W/m 3,2 km/h (1 Bft) 95,74 %
20.06.2019 05:26 16,3 C 15,0 C 15,0 C 97 % 1010,1 hPa 0,0 l/m 0 min 0 min 0 W/m 0,0 km/h (0 Bft) 93,62 %
20.06.2019 05:28 16,3 C 15,0 C 15,0 C 97 % 1010,1 hPa 0,0 l/m 0 min 0 min 0 W/m 3,2 km/h (1 Bft) 95,74 %
20.06.2019 05:30 16,3 C 15,0 C 15,0 C 97 % 1010,0 hPa 0,0 l/m 0 min 0 min 0 W/m 3,2 km/h (1 Bft) 95,74 %
20.06.2019 05:32 16,3 C 15,0 C 15,0 C 97 % 1010,1 hPa 0,0 l/m 0 min 0 min 0 W/m 3,2 km/h (1 Bft) 97,83 %
20.06.2019 05:34 16,3 C 15,0 C 15,0 C 97 % 1010,1 hPa 0,0 l/m 0 min 0 min 0 W/m 0,0 km/h (0 Bft) 97,87 %
20.06.2019 05:36 16,2 C 15,0 C 15,0 C 97 % 1010,1 hPa 0,0 l/m 0 min 0 min 0 W/m 3,2 km/h (1 Bft) 97,87 %
20.06.2019 05:38 16,2 C 15,0 C 15,0 C 97 % 1010,0 hPa 0,0 l/m 0 min 0 min 0 W/m 0,0 km/h (0 Bft) 95,74 %
20.06.2019 05:40 16,2 C 15,0 C 15,0 C 97 % 1010,1 hPa 0,0 l/m 0 min 0 min 0 W/m 0,0 km/h (0 Bft) 95,74 %
20.06.2019 05:42 16,2 C 15,0 C 15,0 C 97 % 1010,1 hPa 0,0 l/m 0 min 0 min 0 W/m 3,2 km/h (1 Bft) 93,48 %
20.06.2019 05:44 16,2 C 15,0 C 15,0 C 97 % 1010,1 hPa 0,0 l/m 0 min 0 min 0 W/m 0,0 km/h (0 Bft) 95,74 %
20.06.2019 05:46 16,2 C 15,0 C 15,0 C 97 % 1010,1 hPa 0,0 l/m 0 min 0 min 0 W/m 0,0 km/h (0 Bft) 93,62 %
20.06.2019 05:48 16,2 C 15,0 C 15,0 C 97 % 1010,2 hPa 0,0 l/m 0 min 0 min 0 W/m 0,0 km/h (0 Bft) 93,62 %
20.06.2019 05:50 16,2 C 15,6 C 15,0 C 97 % 1010,2 hPa 0,0 l/m 0 min 0 min 0 W/m 3,2 km/h (1 Bft) 95,74 %
20.06.2019 05:52 16,2 C 15,6 C 15,0 C 97 % 1010,2 hPa 0,0 l/m 0 min 0 min 0 W/m 3,2 km/h (1 Bft) 93,62 %
20.06.2019 05:54 16,2 C 15,6 C 15,0 C 97 % 1010,2 hPa 0,0 l/m 0 min 0 min 5 W/m 3,2 km/h (1 Bft) 95,65 %
20.06.2019 05:56 16,2 C 15,6 C 15,0 C 97 % 1010,2 hPa 0,0 l/m 0 min 0 min 7 W/m 0,0 km/h (0 Bft) 95,74 %
20.06.2019 05:58 16,3 C 15,6 C 15,0 C 97 % 1010,2 hPa 0,0 l/m 0 min 0 min 10 W/m 3,2 km/h (1 Bft) 95,74 %
20.06.2019 06:00 16,3 C 15,6 C 15,0 C 97 % 1010,1 hPa 0,0 l/m 0 min 0 min 11 W/m 3,2 km/h (1 Bft) 95,74 %
20.06.2019 06:02 16,3 C 15,6 C 15,0 C 97 % 1010,2 hPa 0,0 l/m 0 min 0 min 11 W/m 6,4 km/h (2 Bft) 95,74 %
20.06.2019 06:04 16,3 C 15,6 C 15,0 C 97 % 1010,2 hPa 0,0 l/m 0 min 0 min 9 W/m 3,2 km/h (1 Bft) 95,74 %
20.06.2019 06:08 16,3 C 15,6 C 15,0 C 97 % 1010,2 hPa 0,0 l/m 0 min 0 min 9 W/m 3,2 km/h (1 Bft) 93,55 %
20.06.2019 06:10 16,3 C 15,6 C 15,0 C 97 % 1010,3 hPa 0,0 l/m 0 min 0 min 11 W/m 6,4 km/h (2 Bft) 93,62 %
20.06.2019 06:12 16,3 C 15,6 C 15,0 C 97 % 1010,3 hPa 0,0 l/m 0 min 0 min 11 W/m 9,7 km/h (2 Bft) 97,87 %
20.06.2019 06:14 16,3 C 15,6 C 15,0 C 97 % 1010,4 hPa 0,0 l/m 0 min 0 min 9 W/m 6,4 km/h (2 Bft) 97,87 %
20.06.2019 06:16 16,3 C 15,6 C 15,0 C 98 % 1010,4 hPa 0,0 l/m 0 min 0 min 8 W/m 6,4 km/h (2 Bft) 95,74 %
20.06.2019 06:18 16,4 C 16,1 C 15,0 C 98 % 1010,4 hPa 0,0 l/m 0 min 0 min 10 W/m 0,0 km/h (0 Bft) 97,83 %
20.06.2019 06:20 16,4 C 16,1 C 15,0 C 98 % 1010,4 hPa 0,0 l/m 0 min 0 min 11 W/m 3,2 km/h (1 Bft) 97,87 %
20.06.2019 06:22 16,4 C 16,1 C 15,0 C 98 % 1010,4 hPa 0,0 l/m 0 min 0 min 14 W/m 9,7 km/h (2 Bft) 97,87 %
20.06.2019 06:24 16,4 C 16,1 C 15,0 C 98 % 1010,4 hPa 0,0 l/m 0 min 0 min 19 W/m 3,2 km/h (1 Bft) 97,87 %
20.06.2019 06:26 16,4 C 16,1 C 15,0 C 98 % 1010,4 hPa 0,0 l/m 0 min 0 min 22 W/m 3,2 km/h (1 Bft) 95,74 %
20.06.2019 06:28 16,4 C 16,1 C 15,0 C 98 % 1010,4 hPa 0,0 l/m 0 min 0 min 25 W/m 3,2 km/h (1 Bft) 97,83 %
20.06.2019 06:30 16,4 C 16,1 C 15,0 C 98 % 1010,4 hPa 0,0 l/m 0 min 0 min 26 W/m 6,4 km/h (2 Bft) 97,87 %
20.06.2019 06:32 16,4 C 16,1 C 15,0 C 98 % 1010,5 hPa 0,0 l/m 0 min 0 min 27 W/m 6,4 km/h (2 Bft) 97,87 %
20.06.2019 06:34 16,5 C 16,1 C 15,0 C 98 % 1010,5 hPa 0,0 l/m 0 min 0 min 28 W/m 9,7 km/h (2 Bft) 97,87 %
20.06.2019 06:36 16,5 C 16,1 C 15,0 C 98 % 1010,5 hPa 0,0 l/m 0 min 0 min 30 W/m 3,2 km/h (1 Bft) 97,87 %
20.06.2019 06:38 16,5 C 16,1 C 15,0 C 98 % 1010,5 hPa 0,0 l/m 0 min 0 min 37 W/m 6,4 km/h (2 Bft) 100,00 %
20.06.2019 06:40 16,5 C 16,1 C 15,0 C 98 % 1010,5 hPa 0,0 l/m 0 min 0 min 41 W/m 6,4 km/h (2 Bft) 100,00 %
20.06.2019 06:42 16,5 C 16,1 C 15,0 C 98 % 1010,6 hPa 0,0 l/m 0 min 0 min 45 W/m 16,1 km/h (3 Bft) 100,00 %
20.06.2019 06:44 16,6 C 16,1 C 15,0 C 98 % 1010,6 hPa 0,0 l/m 0 min 0 min 42 W/m 12,9 km/h (3 Bft) 97,87 %
20.06.2019 06:46 16,6 C 16,1 C 15,0 C 98 % 1010,7 hPa 0,0 l/m 0 min 0 min 33 W/m 9,7 km/h (2 Bft) 100,00 %
20.06.2019 06:48 16,6 C 16,1 C 15,0 C 98 % 1010,7 hPa 0,0 l/m 0 min 0 min 35 W/m 16,1 km/h (3 Bft) 100,00 %
20.06.2019 06:50 16,6 C 16,1 C 15,0 C 98 % 1010,7 hPa 0,0 l/m 0 min 0 min 39 W/m 12,9 km/h (3 Bft) 100,00 %
20.06.2019 06:52 16,6 C 16,1 C 15,0 C 98 % 1010,7 hPa 0,0 l/m 0 min 0 min 41 W/m 12,9 km/h (3 Bft) 100,00 %
20.06.2019 06:54 16,6 C 16,1 C 15,0 C 97 % 1010,8 hPa 0,0 l/m 0 min 0 min 31 W/m 6,4 km/h (2 Bft) 97,87 %
20.06.2019 06:56 16,6 C 16,1 C 15,0 C 97 % 1010,7 hPa 0,0 l/m 0 min 0 min 26 W/m 16,1 km/h (3 Bft) 100,00 %
20.06.2019 06:58 16,6 C 16,1 C 15,0 C 97 % 1010,7 hPa 0,0 l/m 0 min 0 min 27 W/m 12,9 km/h (3 Bft) 97,87 %
20.06.2019 07:00 16,6 C 16,1 C 15,0 C 97 % 1010,8 hPa 0,0 l/m 0 min 0 min 26 W/m 16,1 km/h (3 Bft) 100,00 %
20.06.2019 07:02 16,6 C 16,1 C 15,0 C 97 % 1010,8 hPa 0,0 l/m 0 min 0 min 28 W/m 16,1 km/h (3 Bft) 97,87 %
20.06.2019 07:04 16,6 C 16,1 C 15,0 C 97 % 1010,8 hPa 0,0 l/m 0 min 0 min 30 W/m 16,1 km/h (3 Bft) 97,83 %
20.06.2019 07:06 16,6 C 16,1 C 15,0 C 97 % 1010,8 hPa 0,0 l/m 0 min 0 min 35 W/m 16,1 km/h (3 Bft) 97,87 %
20.06.2019 07:08 16,6 C 16,1 C 15,0 C 98 % 1010,8 hPa 0,0 l/m 0 min 0 min 43 W/m 12,9 km/h (3 Bft) 100,00 %
20.06.2019 07:10 16,6 C 16,1 C 15,0 C 98 % 1010,8 hPa 0,0 l/m 0 min 0 min 48 W/m 9,7 km/h (2 Bft) 100,00 %
20.06.2019 07:12 16,6 C 16,1 C 15,0 C 98 % 1010,9 hPa 0,0 l/m 0 min 0 min 52 W/m 12,9 km/h (3 Bft) 100,00 %
20.06.2019 07:14 16,6 C 16,7 C 15,6 C 98 % 1010,9 hPa 0,0 l/m 0 min 0 min 56 W/m 6,4 km/h (2 Bft) 100,00 %
20.06.2019 07:16 16,6 C 16,7 C 15,6 C 98 % 1010,9 hPa 0,0 l/m 0 min 0 min 54 W/m 12,9 km/h (3 Bft) 100,00 %
20.06.2019 07:18 16,6 C 16,7 C 15,6 C 97 % 1010,9 hPa 0,0 l/m 0 min 0 min 52 W/m 6,4 km/h (2 Bft) 100,00 %
20.06.2019 07:20 16,7 C 16,7 C 15,6 C 97 % 1010,9 hPa 0,0 l/m 0 min 0 min 49 W/m 12,9 km/h (3 Bft) 95,74 %
20.06.2019 07:22 16,7 C 16,7 C 15,0 C 97 % 1011,0 hPa 0,0 l/m 0 min 0 min 56 W/m 12,9 km/h (3 Bft) 95,74 %
20.06.2019 07:24 16,7 C 16,7 C 15,6 C 97 % 1011,0 hPa 0,0 l/m 0 min 0 min 68 W/m 9,7 km/h (2 Bft) 97,87 %
20.06.2019 07:26 16,7 C 16,7 C 15,6 C 97 % 1011,1 hPa 0,0 l/m 0 min 0 min 79 W/m 9,7 km/h (2 Bft) 97,87 %
20.06.2019 07:28 16,7 C 16,7 C 15,6 C 97 % 1011,1 hPa 0,0 l/m 0 min 0 min 70 W/m 6,4 km/h (2 Bft) 97,83 %
20.06.2019 07:30 16,7 C 16,7 C 15,6 C 97 % 1011,1 hPa 0,0 l/m 0 min 0 min 63 W/m 16,1 km/h (3 Bft) 97,87 %
20.06.2019 07:32 16,7 C 16,7 C 15,6 C 97 % 1011,1 hPa 0,0 l/m 0 min 0 min 65 W/m 6,4 km/h (2 Bft) 97,87 %
20.06.2019 07:34 16,7 C 16,7 C 15,6 C 97 % 1011,1 hPa 0,0 l/m 0 min 0 min 74 W/m 9,7 km/h (2 Bft) 95,74 %
20.06.2019 07:36 16,7 C 16,7 C 15,6 C 97 % 1011,1 hPa 0,0 l/m 0 min 0 min 75 W/m 9,7 km/h (2 Bft) 97,87 %
20.06.2019 07:38 16,8 C 16,7 C 15,6 C 97 % 1011,1 hPa 0,0 l/m 0 min 0 min 78 W/m 22,5 km/h (4 Bft) 97,83 %
20.06.2019 07:40 16,8 C 16,7 C 15,6 C 97 % 1011,2 hPa 0,0 l/m 0 min 0 min 73 W/m 25,7 km/h (4 Bft) 97,87 %
20.06.2019 07:42 16,8 C 16,7 C 15,6 C 97 % 1011,1 hPa 0,0 l/m 0 min 0 min 65 W/m 12,9 km/h (3 Bft) 97,87 %
20.06.2019 07:44 16,8 C 16,7 C 15,6 C 97 % 1011,2 hPa 0,0 l/m 0 min 0 min 74 W/m 16,1 km/h (3 Bft) 97,87 %
20.06.2019 07:46 16,8 C 16,7 C 15,6 C 97 % 1011,2 hPa 0,0 l/m 0 min 0 min 90 W/m 19,3 km/h (3 Bft) 95,74 %
20.06.2019 07:48 16,8 C 17,2 C 16,1 C 97 % 1011,2 hPa 0,0 l/m 0 min 0 min 99 W/m 19,3 km/h (3 Bft) 97,87 %
20.06.2019 07:50 16,8 C 17,2 C 16,1 C 97 % 1011,1 hPa 0,0 l/m 0 min 0 min 95 W/m 22,5 km/h (4 Bft) 95,65 %
20.06.2019 07:52 16,8 C 17,2 C 16,1 C 97 % 1011,2 hPa 0,0 l/m 0 min 0 min 85 W/m 12,9 km/h (3 Bft) 93,62 %
20.06.2019 07:54 16,8 C 17,2 C 16,1 C 97 % 1011,1 hPa 0,0 l/m 0 min 0 min 94 W/m 12,9 km/h (3 Bft) 97,87 %
20.06.2019 07:56 16,9 C 17,2 C 16,1 C 97 % 1011,3 hPa 0,0 l/m 0 min 0 min 105 W/m 12,9 km/h (3 Bft) 97,87 %
20.06.2019 07:58 16,9 C 17,2 C 16,1 C 97 % 1011,2 hPa 0,0 l/m 0 min 0 min 103 W/m 9,7 km/h (2 Bft) 97,87 %
20.06.2019 08:00 16,9 C 17,2 C 16,1 C 97 % 1011,2 hPa 0,0 l/m 0 min 0 min 101 W/m 12,9 km/h (3 Bft) 97,87 %
20.06.2019 08:02 16,9 C 17,2 C 16,1 C 96 % 1011,2 hPa 0,0 l/m 0 min 0 min 104 W/m 6,4 km/h (2 Bft) 95,65 %
20.06.2019 08:04 16,9 C 17,2 C 16,7 C 97 % 1011,2 hPa 0,0 l/m 0 min 0 min 118 W/m 9,7 km/h (2 Bft) 97,87 %
20.06.2019 08:06 16,9 C 17,8 C 16,7 C 96 % 1011,2 hPa 0,0 l/m 0 min 0 min 128 W/m 12,9 km/h (3 Bft) 100,00 %
20.06.2019 08:08 16,9 C 17,8 C 16,7 C 96 % 1011,2 hPa 0,0 l/m 0 min 0 min 127 W/m 9,7 km/h (2 Bft) 96,61 %
20.06.2019 08:10 17,0 C 18,3 C 16,7 C 96 % 1011,2 hPa 0,0 l/m 0 min 0 min 124 W/m 16,1 km/h (3 Bft) 97,87 %
20.06.2019 08:12 17,0 C 17,8 C 16,7 C 96 % 1011,2 hPa 0,0 l/m 0 min 0 min 109 W/m 16,1 km/h (3 Bft) 100,00 %
20.06.2019 08:14 17,0 C 17,8 C 16,7 C 96 % 1011,2 hPa 0,0 l/m 0 min 0 min 116 W/m 12,9 km/h (3 Bft) 100,00 %
20.06.2019 08:16 17,1 C 17,8 C 16,7 C 96 % 1011,2 hPa 0,0 l/m 0 min 0 min 124 W/m 12,9 km/h (3 Bft) 97,87 %
20.06.2019 08:18 17,1 C 17,8 C 16,7 C 96 % 1011,1 hPa 0,0 l/m 0 min 0 min 139 W/m 19,3 km/h (3 Bft) 97,87 %
20.06.2019 08:20 17,1 C 18,9 C 16,7 C 95 % 1011,2 hPa 0,0 l/m 0 min 0 min 154 W/m 22,5 km/h (4 Bft) 100,00 %
20.06.2019 08:22 17,2 C 19,4 C 17,2 C 95 % 1011,1 hPa 0,0 l/m 0 min 0 min 176 W/m 19,3 km/h (3 Bft) 100,00 %
20.06.2019 08:24 17,2 C 20,0 C 17,2 C 95 % 1011,1 hPa 0,0 l/m 0 min 0 min 187 W/m 16,1 km/h (3 Bft) 97,87 %
20.06.2019 08:26 17,3 C 20,6 C 17,8 C 95 % 1011,2 hPa 0,0 l/m 0 min 0 min 170 W/m 9,7 km/h (2 Bft) 95,65 %
20.06.2019 08:28 17,3 C 20,0 C 17,8 C 95 % 1011,3 hPa 0,0 l/m 0 min 0 min 153 W/m 12,9 km/h (3 Bft) 97,87 %
20.06.2019 08:30 17,4 C 19,4 C 17,8 C 95 % 1011,3 hPa 0,0 l/m 0 min 0 min 116 W/m 6,4 km/h (2 Bft) 97,87 %
20.06.2019 08:32 17,4 C 18,9 C 17,2 C 95 % 1011,2 hPa 0,0 l/m 0 min 0 min 113 W/m 16,1 km/h (3 Bft) 97,87 %
20.06.2019 08:34 17,4 C 18,9 C 17,8 C 94 % 1011,2 hPa 0,0 l/m 0 min 0 min 138 W/m 16,1 km/h (3 Bft) 97,87 %
20.06.2019 08:36 17,4 C 19,4 C 18,3 C 94 % 1011,2 hPa 0,0 l/m 0 min 0 min 169 W/m 16,1 km/h (3 Bft) 97,83 %
20.06.2019 08:38 17,5 C 20,6 C 19,4 C 94 % 1011,2 hPa 0,0 l/m 0 min 0 min 200 W/m 12,9 km/h (3 Bft) 97,87 %
20.06.2019 08:40 17,6 C 20,6 C 20,0 C 93 % 1011,3 hPa 0,0 l/m 2 min 0 min 242 W/m 19,3 km/h (3 Bft) 95,74 %
20.06.2019 08:42 17,7 C 20,6 C 20,0 C 93 % 1011,3 hPa 0,0 l/m 0 min 0 min 229 W/m 19,3 km/h (3 Bft) 97,87 %
20.06.2019 08:44 17,8 C 20,0 C 19,4 C 93 % 1011,2 hPa 0,0 l/m 0 min 0 min 178 W/m 6,4 km/h (2 Bft) 97,87 %
20.06.2019 08:46 17,8 C 19,4 C 18,9 C 93 % 1011,3 hPa 0,0 l/m 0 min 0 min 161 W/m 9,7 km/h (2 Bft) 97,87 %
20.06.2019 08:48 17,8 C 18,9 C 17,8 C 92 % 1011,3 hPa 0,0 l/m 0 min 0 min 148 W/m 22,5 km/h (4 Bft) 97,87 %
20.06.2019 08:50 17,8 C 18,3 C 17,2 C 92 % 1011,3 hPa 0,0 l/m 0 min 0 min 130 W/m 12,9 km/h (3 Bft) 95,65 %
20.06.2019 08:52 17,8 C 17,8 C 17,2 C 91 % 1011,3 hPa 0,0 l/m 0 min 0 min 113 W/m 16,1 km/h (3 Bft) 95,74 %
20.06.2019 08:54 17,9 C 17,8 C 17,2 C 91 % 1011,3 hPa 0,0 l/m 0 min 0 min 126 W/m 9,7 km/h (2 Bft) 95,74 %
20.06.2019 08:56 17,9 C 18,3 C 17,2 C 91 % 1011,3 hPa 0,0 l/m 0 min 0 min 149 W/m 9,7 km/h (2 Bft) 93,62 %
20.06.2019 08:58 17,9 C 18,3 C 17,2 C 90 % 1011,3 hPa 0,0 l/m 0 min 0 min 133 W/m 16,1 km/h (3 Bft) 93,62 %
20.06.2019 09:00 17,9 C 18,3 C 17,2 C 90 % 1011,3 hPa 0,0 l/m 0 min 0 min 132 W/m 16,1 km/h (3 Bft) 95,65 %
20.06.2019 09:02 17,9 C 18,3 C 17,2 C 90 % 1011,3 hPa 0,0 l/m 0 min 0 min 140 W/m 16,1 km/h (3 Bft) 93,62 %
20.06.2019 09:04 17,9 C 18,3 C 17,2 C 90 % 1011,3 hPa 0,0 l/m 0 min 0 min 126 W/m 12,9 km/h (3 Bft) 93,62 %
20.06.2019 09:06 17,9 C 18,3 C 17,2 C 90 % 1011,3 hPa 0,0 l/m 0 min 0 min 133 W/m 12,9 km/h (3 Bft) 95,74 %
20.06.2019 09:08 17,9 C 18,3 C 17,2 C 90 % 1011,3 hPa 0,0 l/m 0 min 0 min 146 W/m 9,7 km/h (2 Bft) 95,74 %
20.06.2019 09:10 17,9 C 18,9 C 17,8 C 90 % 1011,3 hPa 0,0 l/m 0 min 0 min 176 W/m 19,3 km/h (3 Bft) 93,62 %
20.06.2019 09:12 17,9 C 19,4 C 18,9 C 89 % 1011,4 hPa 0,0 l/m 0 min 0 min 253 W/m 22,5 km/h (4 Bft) 95,65 %
20.06.2019 09:14 17,9 C 19,4 C 18,9 C 89 % 1011,3 hPa 0,0 l/m 0 min 0 min 262 W/m 16,1 km/h (3 Bft) 95,74 %
20.06.2019 09:16 17,9 C 20,0 C 19,4 C 89 % 1011,4 hPa 0,0 l/m 0 min 0 min 263 W/m 12,9 km/h (3 Bft) 95,74 %
20.06.2019 09:18 18,0 C 20,0 C 18,9 C 89 % 1011,4 hPa 0,0 l/m 0 min 0 min 253 W/m 22,5 km/h (4 Bft) 93,62 %
20.06.2019 09:20 18,0 C 19,4 C 18,9 C 89 % 1011,4 hPa 0,0 l/m 0 min 0 min 246 W/m 22,5 km/h (4 Bft) 95,74 %
20.06.2019 09:22 18,0 C 19,4 C 18,9 C 88 % 1011,4 hPa 0,0 l/m 0 min 0 min 284 W/m 22,5 km/h (4 Bft) 95,74 %
20.06.2019 09:24 18,1 C 19,4 C 18,9 C 87 % 1011,5 hPa 0,0 l/m 2 min 0 min 308 W/m 12,9 km/h (3 Bft) 93,48 %
20.06.2019 09:26 18,1 C 20,6 C 19,4 C 87 % 1011,4 hPa 0,0 l/m 2 min 0 min 334 W/m 16,1 km/h (3 Bft) 95,74 %
20.06.2019 09:28 18,1 C 20,6 C 20,0 C 87 % 1011,4 hPa 0,0 l/m 2 min 0 min 387 W/m 12,9 km/h (3 Bft) 95,74 %
20.06.2019 09:30 18,2 C 22,2 C 21,1 C 87 % 1011,5 hPa 0,0 l/m 2 min 0 min 466 W/m 16,1 km/h (3 Bft) 95,74 %
20.06.2019 09:32 18,3 C 21,7 C 20,6 C 87 % 1011,5 hPa 0,0 l/m 2 min 0 min 473 W/m 16,1 km/h (3 Bft) 95,74 %
20.06.2019 09:34 18,4 C 20,6 C 20,0 C 86 % 1011,6 hPa 0,0 l/m 2 min 0 min 431 W/m 16,1 km/h (3 Bft) 97,87 %
20.06.2019 09:36 18,4 C 19,4 C 18,9 C 86 % 1011,5 hPa 0,0 l/m 0 min 0 min 194 W/m 22,5 km/h (4 Bft) 97,83 %
20.06.2019 09:38 18,4 C 18,9 C 18,3 C 86 % 1011,6 hPa 0,0 l/m 0 min 0 min 181 W/m 19,3 km/h (3 Bft) 97,87 %
20.06.2019 09:40 18,4 C 19,4 C 18,9 C 85 % 1011,6 hPa 0,0 l/m 0 min 0 min 263 W/m 19,3 km/h (3 Bft) 97,87 %
20.06.2019 09:42 18,4 C 20,6 C 20,0 C 85 % 1011,5 hPa 0,0 l/m 2 min 0 min 361 W/m 12,9 km/h (3 Bft) 97,87 %
20.06.2019 09:44 18,5 C 20,0 C 19,4 C 86 % 1011,6 hPa 0,0 l/m 2 min 0 min 334 W/m 19,3 km/h (3 Bft) 100,00 %
20.06.2019 09:46 18,4 C 18,9 C 18,3 C 84 % 1011,6 hPa 0,0 l/m 0 min 0 min 272 W/m 29,0 km/h (5 Bft) 100,00 %
20.06.2019 09:48 18,4 C 19,4 C 18,9 C 84 % 1011,6 hPa 0,0 l/m 0 min 0 min 166 W/m 9,7 km/h (2 Bft) 95,65 %
20.06.2019 09:50 18,4 C 20,0 C 19,4 C 85 % 1011,6 hPa 0,0 l/m 2 min 0 min 374 W/m 12,9 km/h (3 Bft) 97,87 %
20.06.2019 09:52 18,5 C 20,6 C 19,4 C 85 % 1011,7 hPa 0,0 l/m 2 min 0 min 371 W/m 12,9 km/h (3 Bft) 95,74 %
20.06.2019 09:54 18,5 C 20,6 C 19,4 C 85 % 1011,7 hPa 0,0 l/m 0 min 0 min 299 W/m 12,9 km/h (3 Bft) 97,87 %
20.06.2019 09:56 18,6 C 20,0 C 19,4 C 84 % 1011,8 hPa 0,0 l/m 0 min 0 min 270 W/m 9,7 km/h (2 Bft) 97,87 %
20.06.2019 09:58 18,6 C 20,6 C 19,4 C 85 % 1011,7 hPa 0,0 l/m 0 min 0 min 293 W/m 16,1 km/h (3 Bft) 97,83 %
20.06.2019 10:00 18,7 C 22,8 C 21,7 C 85 % 1011,7 hPa 0,0 l/m 2 min 0 min 334 W/m 12,9 km/h (3 Bft) 97,87 %
20.06.2019 10:02 18,7 C 22,2 C 21,7 C 85 % 1011,7 hPa 0,0 l/m 2 min 0 min 464 W/m 9,7 km/h (2 Bft) 95,74 %
20.06.2019 10:04 18,8 C 23,3 C 22,2 C 85 % 1011,8 hPa 0,0 l/m 2 min 0 min 366 W/m 12,9 km/h (3 Bft) 97,87 %
20.06.2019 10:06 18,9 C 23,9 C 22,8 C 85 % 1011,8 hPa 0,0 l/m 2 min 0 min 360 W/m 12,9 km/h (3 Bft) 97,87 %
20.06.2019 10:08 19,1 C 22,2 C 21,1 C 85 % 1011,8 hPa 0,0 l/m 0 min 0 min 278 W/m 12,9 km/h (3 Bft) 97,87 %
20.06.2019 10:10 19,1 C 21,1 C 20,6 C 85 % 1011,8 hPa 0,0 l/m 0 min 0 min 208 W/m 12,9 km/h (3 Bft) 95,65 %
20.06.2019 10:12 19,2 C 21,7 C 21,1 C 85 % 1011,8 hPa 0,0 l/m 2 min 0 min 368 W/m 19,3 km/h (3 Bft) 97,87 %
20.06.2019 10:14 19,2 C 22,2 C 21,7 C 84 % 1011,8 hPa 0,0 l/m 2 min 0 min 490 W/m 22,5 km/h (4 Bft) 97,87 %
20.06.2019 10:16 19,2 C 22,8 C 22,2 C 84 % 1011,8 hPa 0,0 l/m 2 min 0 min 602 W/m 19,3 km/h (3 Bft) 97,87 %
20.06.2019 10:18 19,3 C 23,9 C 23,3 C 84 % 1011,8 hPa 0,0 l/m 2 min 0 min 818 W/m 12,9 km/h (3 Bft) 97,87 %
20.06.2019 10:20 19,4 C 21,7 C 21,1 C 84 % 1011,8 hPa 0,0 l/m 2 min 0 min 454 W/m 25,7 km/h (4 Bft) 97,87 %
20.06.2019 10:22 19,4 C 21,1 C 20,0 C 82 % 1011,9 hPa 0,0 l/m 0 min 0 min 290 W/m 19,3 km/h (3 Bft) 97,83 %
20.06.2019 10:24 19,4 C 20,0 C 19,4 C 82 % 1011,9 hPa 0,0 l/m 0 min 0 min 251 W/m 16,1 km/h (3 Bft) 97,87 %
20.06.2019 10:26 19,3 C 20,0 C 19,4 C 81 % 1011,9 hPa 0,0 l/m 0 min 0 min 233 W/m 12,9 km/h (3 Bft) 97,87 %
20.06.2019 10:28 19,3 C 22,2 C 21,1 C 81 % 1011,9 hPa 0,0 l/m 0 min 0 min 272 W/m 9,7 km/h (2 Bft) 100,00 %
20.06.2019 10:30 19,4 C 23,3 C 22,2 C 82 % 1011,9 hPa 0,0 l/m 2 min 0 min 551 W/m 12,9 km/h (3 Bft) 100,00 %
20.06.2019 10:32 19,4 C 23,3 C 22,8 C 81 % 1011,9 hPa 0,0 l/m 2 min 0 min 589 W/m 16,1 km/h (3 Bft) 100,00 %
20.06.2019 10:34 19,5 C 21,7 C 21,1 C 81 % 1011,9 hPa 0,0 l/m 2 min 0 min 624 W/m 16,1 km/h (3 Bft) 97,83 %
20.06.2019 10:36 19,5 C 21,1 C 20,0 C 81 % 1011,9 hPa 0,0 l/m 0 min 0 min 138 W/m 6,4 km/h (2 Bft) 100,00 %
20.06.2019 10:38 19,6 C 20,6 C 19,4 C 82 % 1011,9 hPa 0,0 l/m 0 min 0 min 164 W/m 9,7 km/h (2 Bft) 100,00 %
20.06.2019 10:40 19,6 C 20,0 C 19,4 C 81 % 1011,9 hPa 0,0 l/m 0 min 0 min 195 W/m 9,7 km/h (2 Bft) 100,00 %
20.06.2019 10:42 19,5 C 20,6 C 20,0 C 81 % 1012,0 hPa 0,0 l/m 0 min 0 min 277 W/m 9,7 km/h (2 Bft) 100,00 %
20.06.2019 10:44 19,5 C 21,1 C 20,0 C 81 % 1011,9 hPa 0,0 l/m 0 min 0 min 254 W/m 6,4 km/h (2 Bft) 95,74 %
20.06.2019 10:46 19,5 C 21,1 C 20,6 C 81 % 1011,9 hPa 0,0 l/m 0 min 0 min 292 W/m 12,9 km/h (3 Bft) 95,65 %
20.06.2019 10:48 19,6 C 23,3 C 22,8 C 81 % 1011,9 hPa 0,0 l/m 2 min 0 min 648 W/m 16,1 km/h (3 Bft) 100,00 %
20.06.2019 10:50 19,6 C 23,3 C 22,8 C 80 % 1011,9 hPa 0,0 l/m 2 min 0 min 763 W/m 9,7 km/h (2 Bft) 100,00 %
20.06.2019 10:52 19,7 C 23,3 C 22,8 C 80 % 1011,9 hPa 0,0 l/m 2 min 0 min 501 W/m 9,7 km/h (2 Bft) 100,00 %
20.06.2019 10:54 19,8 C 22,8 C 21,7 C 81 % 1011,9 hPa 0,0 l/m 0 min 0 min 360 W/m 19,3 km/h (3 Bft) 100,00 %
20.06.2019 10:56 19,8 C 21,7 C 20,6 C 80 % 1011,9 hPa 0,0 l/m 0 min 0 min 276 W/m 22,5 km/h (4 Bft) 100,00 %
20.06.2019 10:58 19,8 C 20,6 C 20,0 C 79 % 1011,9 hPa 0,0 l/m 0 min 0 min 226 W/m 12,9 km/h (3 Bft) 100,00 %
20.06.2019 11:00 19,8 C 21,1 C 20,0 C 79 % 1011,9 hPa 0,0 l/m 0 min 0 min 235 W/m 12,9 km/h (3 Bft) 100,00 %
20.06.2019 11:02 19,9 C 22,8 C 22,2 C 79 % 1012,0 hPa 0,0 l/m 0 min 0 min 250 W/m 12,9 km/h (3 Bft) 97,87 %
20.06.2019 11:04 19,9 C 22,8 C 22,2 C 79 % 1011,9 hPa 0,0 l/m 0 min 0 min 250 W/m 12,9 km/h (3 Bft) 100,00 %
20.06.2019 11:06 20,0 C 22,8 C 22,2 C 79 % 1012,0 hPa 0,0 l/m 0 min 0 min 247 W/m 12,9 km/h (3 Bft) 97,87 %
20.06.2019 11:08 20,0 C 22,8 C 21,7 C 78 % 1012,1 hPa 0,0 l/m 0 min 0 min 286 W/m 19,3 km/h (3 Bft) 100,00 %
20.06.2019 11:10 20,0 C 22,8 C 22,2 C 78 % 1012,1 hPa 0,0 l/m 0 min 0 min 328 W/m 16,1 km/h (3 Bft) 100,00 %
20.06.2019 11:12 20,1 C 23,9 C 23,3 C 78 % 1012,1 hPa 0,0 l/m 2 min 0 min 739 W/m 16,1 km/h (3 Bft) 100,00 %
20.06.2019 11:14 20,1 C 25,0 C 24,4 C 78 % 1012,0 hPa 0,0 l/m 2 min 0 min 791 W/m 16,1 km/h (3 Bft) 100,00 %
20.06.2019 11:16 20,2 C 25,0 C 24,4 C 78 % 1012,0 hPa 0,0 l/m 2 min 0 min 763 W/m 19,3 km/h (3 Bft) 97,87 %
20.06.2019 11:18 20,3 C 26,1 C 25,6 C 77 % 1012,0 hPa 0,0 l/m 2 min 0 min 869 W/m 25,7 km/h (4 Bft) 100,00 %
20.06.2019 11:20 20,5 C 27,2 C 26,7 C 78 % 1011,9 hPa 0,0 l/m 2 min 0 min 880 W/m 19,3 km/h (3 Bft) 97,83 %
20.06.2019 11:22 20,6 C 26,1 C 25,6 C 77 % 1012,0 hPa 0,0 l/m 2 min 0 min 861 W/m 19,3 km/h (3 Bft) 97,87 %
20.06.2019 11:24 20,7 C 25,6 C 24,4 C 77 % 1012,0 hPa 0,0 l/m 2 min 0 min 505 W/m 16,1 km/h (3 Bft) 100,00 %
20.06.2019 11:26 20,8 C 26,1 C 26,1 C 77 % 1012,0 hPa 0,0 l/m 2 min 0 min 662 W/m 12,9 km/h (3 Bft) 100,00 %
20.06.2019 11:28 20,9 C 24,4 C 25,0 C 76 % 1011,9 hPa 0,0 l/m 2 min 0 min 757 W/m 9,7 km/h (2 Bft) 100,00 %
20.06.2019 11:30 20,9 C 23,3 C 22,8 C 76 % 1012,0 hPa 0,0 l/m 0 min 0 min 233 W/m 16,1 km/h (3 Bft) 100,00 %
20.06.2019 11:32 21,0 C 25,0 C 24,4 C 76 % 1012,0 hPa 0,0 l/m 0 min 0 min 292 W/m 12,9 km/h (3 Bft) 100,00 %
20.06.2019 11:34 21,1 C 25,6 C 25,0 C 75 % 1012,0 hPa 0,0 l/m 2 min 0 min 639 W/m 9,7 km/h (2 Bft) 97,87 %
20.06.2019 11:36 21,1 C 26,1 C 25,0 C 75 % 1012,0 hPa 0,0 l/m 2 min 0 min 654 W/m 9,7 km/h (2 Bft) 100,00 %
20.06.2019 11:38 21,2 C 24,4 C 23,9 C 75 % 1012,0 hPa 0,0 l/m 0 min 0 min 398 W/m 9,7 km/h (2 Bft) 100,00 %
20.06.2019 11:40 21,2 C 22,8 C 22,2 C 75 % 1012,0 hPa 0,0 l/m 0 min 0 min 290 W/m 9,7 km/h (2 Bft) 100,00 %
20.06.2019 11:42 21,2 C 22,2 C 21,7 C 75 % 1012,0 hPa 0,0 l/m 0 min 0 min 242 W/m 9,7 km/h (2 Bft) 97,87 %
20.06.2019 11:44 21,2 C 21,1 C 20,6 C 74 % 1012,2 hPa 0,0 l/m 0 min 0 min 240 W/m 19,3 km/h (3 Bft) 100,00 %
20.06.2019 11:46 21,2 C 21,1 C 20,6 C 74 % 1012,1 hPa 0,0 l/m 0 min 0 min 290 W/m 6,4 km/h (2 Bft) 95,74 %
20.06.2019 11:48 21,1 C 21,1 C 20,6 C 74 % 1012,2 hPa 0,0 l/m 0 min 0 min 330 W/m 22,5 km/h (4 Bft) 97,87 %
20.06.2019 11:50 21,0 C 21,7 C 20,6 C 74 % 1012,1 hPa 0,0 l/m 0 min 0 min 352 W/m 9,7 km/h (2 Bft) 97,87 %
20.06.2019 11:52 21,0 C 22,2 C 21,1 C 74 % 1012,1 hPa 0,0 l/m 0 min 0 min 385 W/m 6,4 km/h (2 Bft) 97,87 %
20.06.2019 11:54 21,0 C 22,8 C 21,7 C 75 % 1012,1 hPa 0,0 l/m 0 min 0 min 405 W/m 6,4 km/h (2 Bft) 97,83 %
20.06.2019 11:56 21,0 C 23,3 C 22,8 C 76 % 1012,1 hPa 0,0 l/m 2 min 0 min 469 W/m 9,7 km/h (2 Bft) 97,87 %
20.06.2019 11:58 21,0 C 25,0 C 23,3 C 76 % 1012,2 hPa 0,0 l/m 2 min 0 min 510 W/m 12,9 km/h (3 Bft) 97,87 %
20.06.2019 12:00 21,1 C 25,6 C 24,4 C 76 % 1012,1 hPa 0,0 l/m 2 min 0 min 645 W/m 9,7 km/h (2 Bft) 97,87 %
20.06.2019 12:02 21,1 C 25,6 C 24,4 C 76 % 1012,1 hPa 0,0 l/m 2 min 0 min 780 W/m 9,7 km/h (2 Bft) 93,62 %
20.06.2019 12:04 21,2 C 26,1 C 24,4 C 76 % 1012,1 hPa 0,0 l/m 2 min 0 min 700 W/m 6,4 km/h (2 Bft) 97,87 %
20.06.2019 12:08 21,4 C 26,1 C 24,4 C 77 % 1012,1 hPa 0,0 l/m 4 min 0 min 571 W/m 6,4 km/h (2 Bft) 96,77 %
20.06.2019 12:10 21,6 C 26,1 C 23,9 C 76 % 1012,1 hPa 0,0 l/m 2 min 0 min 516 W/m 9,7 km/h (2 Bft) 95,74 %
20.06.2019 12:12 21,6 C 26,1 C 24,4 C 74 % 1012,1 hPa 0,0 l/m 2 min 0 min 633 W/m 12,9 km/h (3 Bft) 93,62 %
20.06.2019 12:14 21,7 C 25,6 C 24,4 C 73 % 1012,0 hPa 0,0 l/m 2 min 0 min 643 W/m 19,3 km/h (3 Bft) 95,74 %
20.06.2019 12:16 21,7 C 26,1 C 25,0 C 72 % 1012,1 hPa 0,0 l/m 2 min 0 min 643 W/m 16,1 km/h (3 Bft) 95,74 %
20.06.2019 12:18 21,8 C 24,4 C 23,9 C 71 % 1012,1 hPa 0,0 l/m 2 min 0 min 643 W/m 35,4 km/h (5 Bft) 93,48 %
20.06.2019 12:20 21,8 C 23,9 C 23,3 C 71 % 1012,1 hPa 0,0 l/m 2 min 0 min 512 W/m 19,3 km/h (3 Bft) 89,36 %
20.06.2019 12:22 21,8 C 23,9 C 23,3 C 71 % 1012,1 hPa 0,0 l/m 2 min 0 min 524 W/m 19,3 km/h (3 Bft) 95,74 %
20.06.2019 12:24 21,8 C 24,4 C 23,3 C 71 % 1012,1 hPa 0,0 l/m 2 min 0 min 708 W/m 19,3 km/h (3 Bft) 93,62 %
20.06.2019 12:26 21,9 C 25,0 C 23,9 C 72 % 1012,1 hPa 0,0 l/m 2 min 0 min 595 W/m 16,1 km/h (3 Bft) 93,62 %
20.06.2019 12:28 21,9 C 24,4 C 23,9 C 71 % 1012,1 hPa 0,0 l/m 2 min 0 min 616 W/m 19,3 km/h (3 Bft) 89,36 %
20.06.2019 12:30 21,9 C 24,4 C 23,9 C 70 % 1012,2 hPa 0,0 l/m 2 min 0 min 659 W/m 16,1 km/h (3 Bft) 95,65 %
20.06.2019 12:32 21,9 C 25,0 C 24,4 C 71 % 1012,0 hPa 0,0 l/m 2 min 0 min 634 W/m 6,4 km/h (2 Bft) 89,36 %
20.06.2019 12:34 22,0 C 26,1 C 25,0 C 72 % 1012,1 hPa 0,0 l/m 2 min 0 min 606 W/m 12,9 km/h (3 Bft) 93,62 %
20.06.2019 12:36 22,1 C 25,6 C 25,0 C 71 % 1012,2 hPa 0,0 l/m 2 min 0 min 606 W/m 16,1 km/h (3 Bft) 95,74 %
20.06.2019 12:38 22,1 C 25,0 C 24,4 C 71 % 1012,2 hPa 0,0 l/m 2 min 0 min 484 W/m 16,1 km/h (3 Bft) 93,62 %
20.06.2019 12:40 22,1 C 26,1 C 25,6 C 71 % 1012,1 hPa 0,0 l/m 2 min 0 min 476 W/m 9,7 km/h (2 Bft) 93,62 %
20.06.2019 12:42 22,2 C 25,6 C 25,6 C 72 % 1012,2 hPa 0,0 l/m 2 min 0 min 476 W/m 16,1 km/h (3 Bft) 95,65 %
20.06.2019 12:44 22,3 C 27,8 C 26,7 C 72 % 1012,1 hPa 0,0 l/m 2 min 0 min 476 W/m 12,9 km/h (3 Bft) 91,49 %
20.06.2019 12:46 22,4 C 27,2 C 26,1 C 72 % 1012,1 hPa 0,0 l/m 2 min 0 min 476 W/m 16,1 km/h (3 Bft) 93,62 %
20.06.2019 12:48 22,4 C 27,2 C 26,7 C 70 % 1012,2 hPa 0,0 l/m 2 min 0 min 476 W/m 22,5 km/h (4 Bft) 95,74 %
20.06.2019 12:50 22,6 C 28,3 C 27,8 C 71 % 1012,2 hPa 0,0 l/m 2 min 0 min 523 W/m 12,9 km/h (3 Bft) 95,74 %
20.06.2019 12:52 22,7 C 26,1 C 25,6 C 70 % 1012,1 hPa 0,0 l/m 2 min 0 min 812 W/m 25,7 km/h (4 Bft) 95,74 %
20.06.2019 12:54 22,7 C 25,6 C 25,6 C 69 % 1012,1 hPa 0,0 l/m 0 min 0 min 417 W/m 25,7 km/h (4 Bft) 95,65 %
20.06.2019 12:56 22,7 C 26,1 C 25,6 C 70 % 1012,1 hPa 0,0 l/m 0 min 0 min 417 W/m 16,1 km/h (3 Bft) 95,74 %
20.06.2019 12:58 22,8 C 27,8 C 27,2 C 71 % 1012,2 hPa 0,0 l/m 0 min 0 min 417 W/m 9,7 km/h (2 Bft) 93,62 %
20.06.2019 13:00 22,9 C 28,9 C 27,8 C 72 % 1012,2 hPa 0,0 l/m 0 min 0 min 417 W/m 16,1 km/h (3 Bft) 97,87 %
20.06.2019 13:02 23,1 C 28,3 C 27,2 C 72 % 1012,1 hPa 0,0 l/m 0 min 0 min 417 W/m 9,7 km/h (2 Bft) 97,87 %
20.06.2019 13:04 23,2 C 27,2 C 25,6 C 71 % 1012,1 hPa 0,0 l/m 0 min 0 min 328 W/m 9,7 km/h (2 Bft) 95,65 %
20.06.2019 13:06 23,2 C 25,6 C 24,4 C 71 % 1012,2 hPa 0,0 l/m 0 min 0 min 277 W/m 9,7 km/h (2 Bft) 95,74 %
20.06.2019 13:08 23,1 C 23,9 C 23,3 C 70 % 1012,3 hPa 0,0 l/m 0 min 0 min 240 W/m 9,7 km/h (2 Bft) 97,87 %
20.06.2019 13:10 23,1 C 23,3 C 22,2 C 70 % 1012,2 hPa 0,0 l/m 0 min 0 min 191 W/m 6,4 km/h (2 Bft) 97,87 %
20.06.2019 13:12 23,0 C 22,2 C 21,7 C 70 % 1012,2 hPa 0,0 l/m 0 min 0 min 145 W/m 6,4 km/h (2 Bft) 95,74 %
20.06.2019 13:14 22,9 C 21,7 C 21,7 C 70 % 1012,2 hPa 0,0 l/m 0 min 0 min 142 W/m 9,7 km/h (2 Bft) 97,87 %
20.06.2019 13:16 22,7 C 21,1 C 21,1 C 71 % 1012,2 hPa 0,0 l/m 0 min 0 min 134 W/m 9,7 km/h (2 Bft) 97,83 %
20.06.2019 13:18 22,6 C 21,1 C 21,1 C 71 % 1012,3 hPa 0,0 l/m 0 min 0 min 124 W/m 6,4 km/h (2 Bft) 97,87 %
20.06.2019 13:20 22,5 C 21,1 C 20,6 C 73 % 1012,3 hPa 0,0 l/m 0 min 0 min 152 W/m 9,7 km/h (2 Bft) 97,87 %
20.06.2019 13:22 22,3 C 21,1 C 20,6 C 72 % 1012,3 hPa 0,0 l/m 0 min 0 min 251 W/m 6,4 km/h (2 Bft) 97,87 %
20.06.2019 13:24 22,2 C 21,1 C 21,1 C 72 % 1012,3 hPa 0,0 l/m 0 min 0 min 328 W/m 6,4 km/h (2 Bft) 97,87 %
20.06.2019 13:26 22,2 C 21,7 C 21,1 C 72 % 1012,3 hPa 0,0 l/m 0 min 0 min 349 W/m 9,7 km/h (2 Bft) 97,87 %
20.06.2019 13:28 22,1 C 22,2 C 21,7 C 73 % 1012,2 hPa 0,0 l/m 0 min 0 min 331 W/m 6,4 km/h (2 Bft) 97,83 %
20.06.2019 13:30 22,1 C 23,3 C 22,8 C 75 % 1012,2 hPa 0,0 l/m 0 min 0 min 376 W/m 12,9 km/h (3 Bft) 95,74 %
20.06.2019 13:32 22,0 C 23,3 C 22,8 C 74 % 1012,2 hPa 0,0 l/m 0 min 0 min 377 W/m 12,9 km/h (3 Bft) 97,87 %
20.06.2019 13:34 22,0 C 23,3 C 22,8 C 74 % 1012,1 hPa 0,0 l/m 0 min 0 min 374 W/m 9,7 km/h (2 Bft) 97,87 %
20.06.2019 13:36 22,0 C 22,8 C 22,2 C 74 % 1012,2 hPa 0,0 l/m 0 min 0 min 281 W/m 9,7 km/h (2 Bft) 100,00 %
20.06.2019 13:38 22,0 C 22,2 C 21,7 C 75 % 1012,2 hPa 0,0 l/m 0 min 0 min 223 W/m 6,4 km/h (2 Bft) 100,00 %
20.06.2019 13:40 21,9 C 22,2 C 21,1 C 76 % 1012,3 hPa 0,0 l/m 0 min 0 min 209 W/m 9,7 km/h (2 Bft) 100,00 %
20.06.2019 13:42 21,9 C 21,7 C 21,1 C 76 % 1012,2 hPa 0,0 l/m 0 min 0 min 193 W/m 12,9 km/h (3 Bft) 100,00 %
20.06.2019 13:44 21,7 C 21,1 C 20,6 C 75 % 1012,3 hPa 0,0 l/m 0 min 0 min 163 W/m 9,7 km/h (2 Bft) 100,00 %
20.06.2019 13:46 21,7 C 21,1 C 20,6 C 75 % 1012,3 hPa 0,0 l/m 0 min 0 min 147 W/m 9,7 km/h (2 Bft) 100,00 %
20.06.2019 13:48 21,6 C 21,1 C 20,6 C 75 % 1012,3 hPa 0,0 l/m 0 min 0 min 151 W/m 9,7 km/h (2 Bft) 100,00 %
20.06.2019 13:50 21,6 C 21,1 C 20,6 C 75 % 1012,3 hPa 0,0 l/m 0 min 0 min 150 W/m 9,7 km/h (2 Bft) 100,00 %
20.06.2019 13:52 21,5 C 21,1 C 20,6 C 74 % 1012,3 hPa 0,0 l/m 0 min 0 min 164 W/m 12,9 km/h (3 Bft) 100,00 %
20.06.2019 13:54 21,4 C 21,1 C 20,0 C 75 % 1012,3 hPa 0,0 l/m 0 min 0 min 167 W/m 9,7 km/h (2 Bft) 100,00 %
20.06.2019 13:56 21,3 C 21,1 C 20,0 C 75 % 1012,3 hPa 0,0 l/m 0 min 0 min 189 W/m 12,9 km/h (3 Bft) 100,00 %
20.06.2019 13:58 21,3 C 21,7 C 20,6 C 75 % 1012,3 hPa 0,0 l/m 0 min 0 min 269 W/m 9,7 km/h (2 Bft) 100,00 %
20.06.2019 14:00 21,3 C 23,3 C 22,2 C 76 % 1012,3 hPa 0,0 l/m 2 min 0 min 564 W/m 9,7 km/h (2 Bft) 100,00 %
20.06.2019 14:02 21,3 C 23,3 C 22,8 C 75 % 1012,3 hPa 0,0 l/m 2 min 0 min 571 W/m 9,7 km/h (2 Bft) 100,00 %
20.06.2019 14:04 21,3 C 23,9 C 22,8 C 76 % 1012,3 hPa 0,0 l/m 0 min 0 min 405 W/m 9,7 km/h (2 Bft) 100,00 %
20.06.2019 14:06 21,4 C 23,9 C 22,2 C 75 % 1012,2 hPa 0,0 l/m 0 min 0 min 382 W/m 9,7 km/h (2 Bft) 100,00 %
20.06.2019 14:08 21,4 C 23,3 C 21,7 C 75 % 1012,3 hPa 0,0 l/m 0 min 0 min 333 W/m 9,7 km/h (2 Bft) 100,00 %
20.06.2019 14:10 21,4 C 23,9 C 22,8 C 75 % 1012,3 hPa 0,0 l/m 0 min 0 min 411 W/m 16,1 km/h (3 Bft) 100,00 %
20.06.2019 14:12 21,5 C 24,4 C 23,3 C 75 % 1012,3 hPa 0,0 l/m 2 min 0 min 783 W/m 12,9 km/h (3 Bft) 100,00 %
20.06.2019 14:14 21,6 C 23,9 C 22,8 C 75 % 1012,3 hPa 0,0 l/m 0 min 0 min 423 W/m 9,7 km/h (2 Bft) 100,00 %
20.06.2019 14:16 21,7 C 23,9 C 22,8 C 74 % 1012,3 hPa 0,0 l/m 0 min 0 min 388 W/m 16,1 km/h (3 Bft) 100,00 %
20.06.2019 14:18 21,7 C 22,8 C 22,2 C 74 % 1012,3 hPa 0,0 l/m 0 min 0 min 206 W/m 9,7 km/h (2 Bft) 100,00 %
20.06.2019 14:20 21,7 C 21,7 C 21,1 C 73 % 1012,3 hPa 0,0 l/m 0 min 0 min 132 W/m 16,1 km/h (3 Bft) 100,00 %
20.06.2019 14:22 21,6 C 21,1 C 20,6 C 73 % 1012,3 hPa 0,0 l/m 0 min 0 min 123 W/m 9,7 km/h (2 Bft) 100,00 %
20.06.2019 14:24 21,6 C 20,6 C 20,6 C 74 % 1012,2 hPa 0,0 l/m 0 min 0 min 145 W/m 9,7 km/h (2 Bft) 97,87 %
20.06.2019 14:26 21,4 C 20,6 C 20,0 C 74 % 1012,2 hPa 0,0 l/m 0 min 0 min 182 W/m 9,7 km/h (2 Bft) 100,00 %
20.06.2019 14:28 21,4 C 20,6 C 20,0 C 73 % 1012,3 hPa 0,0 l/m 0 min 0 min 200 W/m 6,4 km/h (2 Bft) 97,87 %
20.06.2019 14:30 21,3 C 20,6 C 20,0 C 74 % 1012,3 hPa 0,0 l/m 0 min 0 min 206 W/m 12,9 km/h (3 Bft) 100,00 %
20.06.2019 14:32 21,2 C 20,6 C 20,0 C 73 % 1012,3 hPa 0,0 l/m 0 min 0 min 216 W/m 12,9 km/h (3 Bft) 100,00 %
20.06.2019 14:34 21,2 C 20,6 C 20,6 C 74 % 1012,3 hPa 0,0 l/m 0 min 0 min 229 W/m 12,9 km/h (3 Bft) 100,00 %
20.06.2019 14:36 21,2 C 21,1 C 20,6 C 75 % 1012,3 hPa 0,0 l/m 0 min 0 min 244 W/m 9,7 km/h (2 Bft) 100,00 %
20.06.2019 14:38 21,2 C 21,1 C 20,6 C 76 % 1012,3 hPa 0,0 l/m 0 min 0 min 231 W/m 16,1 km/h (3 Bft) 100,00 %
20.06.2019 14:40 21,2 C 21,1 C 20,6 C 75 % 1012,3 hPa 0,0 l/m 0 min 0 min 226 W/m 16,1 km/h (3 Bft) 97,87 %
20.06.2019 14:42 21,1 C 21,1 C 20,6 C 75 % 1012,2 hPa 0,0 l/m 0 min 0 min 250 W/m 9,7 km/h (2 Bft) 97,87 %
20.06.2019 14:44 21,1 C 21,1 C 20,6 C 76 % 1012,3 hPa 0,0 l/m 0 min 0 min 240 W/m 9,7 km/h (2 Bft) 97,87 %
20.06.2019 14:46 21,1 C 21,1 C 20,6 C 75 % 1012,3 hPa 0,0 l/m 0 min 0 min 213 W/m 9,7 km/h (2 Bft) 97,87 %
20.06.2019 14:48 21,0 C 21,1 C 20,6 C 75 % 1012,3 hPa 0,0 l/m 0 min 0 min 196 W/m 16,1 km/h (3 Bft) 93,62 %
20.06.2019 14:50 21,0 C 20,6 C 20,6 C 74 % 1012,3 hPa 0,0 l/m 0 min 0 min 171 W/m 9,7 km/h (2 Bft) 95,65 %
20.06.2019 14:52 21,0 C 20,6 C 20,0 C 74 % 1012,3 hPa 0,0 l/m 0 min 0 min 144 W/m 9,7 km/h (2 Bft) 95,74 %
20.06.2019 14:54 20,9 C 20,6 C 20,0 C 74 % 1012,3 hPa 0,0 l/m 0 min 0 min 140 W/m 9,7 km/h (2 Bft) 95,74 %
20.06.2019 14:56 20,9 C 20,6 C 20,0 C 74 % 1012,4 hPa 0,0 l/m 0 min 0 min 137 W/m 9,7 km/h (2 Bft) 95,74 %
20.06.2019 14:58 20,8 C 20,0 C 20,0 C 73 % 1012,4 hPa 0,0 l/m 0 min 0 min 141 W/m 12,9 km/h (3 Bft) 93,62 %
20.06.2019 15:00 20,8 C 20,0 C 20,0 C 73 % 1012,4 hPa 0,0 l/m 0 min 0 min 140 W/m 9,7 km/h (2 Bft) 95,74 %
20.06.2019 15:02 20,7 C 20,0 C 20,0 C 73 % 1012,4 hPa 0,0 l/m 0 min 0 min 134 W/m 6,4 km/h (2 Bft) 95,65 %
20.06.2019 15:04 20,7 C 20,0 C 20,0 C 74 % 1012,4 hPa 0,0 l/m 0 min 0 min 123 W/m 9,7 km/h (2 Bft) 93,62 %
20.06.2019 15:06 20,6 C 20,0 C 19,4 C 75 % 1012,4 hPa 0,0 l/m 0 min 0 min 109 W/m 6,4 km/h (2 Bft) 93,62 %
20.06.2019 15:08 20,6 C 20,0 C 19,4 C 75 % 1012,4 hPa 0,0 l/m 0 min 0 min 102 W/m 12,9 km/h (3 Bft) 93,62 %
20.06.2019 15:10 20,5 C 20,0 C 19,4 C 75 % 1012,4 hPa 0,0 l/m 0 min 0 min 108 W/m 12,9 km/h (3 Bft) 95,74 %
20.06.2019 15:12 20,5 C 20,0 C 19,4 C 76 % 1012,4 hPa 0,0 l/m 0 min 0 min 115 W/m 9,7 km/h (2 Bft) 93,62 %
20.06.2019 15:14 20,4 C 19,4 C 19,4 C 76 % 1012,5 hPa 0,0 l/m 0 min 0 min 114 W/m 9,7 km/h (2 Bft) 95,65 %
20.06.2019 15:16 20,4 C 19,4 C 19,4 C 76 % 1012,5 hPa 0,0 l/m 0 min 0 min 114 W/m 6,4 km/h (2 Bft) 95,74 %
20.06.2019 15:18 20,3 C 19,4 C 19,4 C 76 % 1012,5 hPa 0,0 l/m 0 min 0 min 113 W/m 9,7 km/h (2 Bft) 95,74 %
20.06.2019 15:20 20,3 C 19,4 C 19,4 C 76 % 1012,5 hPa 0,0 l/m 0 min 0 min 110 W/m 6,4 km/h (2 Bft) 93,62 %
20.06.2019 15:22 20,2 C 19,4 C 19,4 C 76 % 1012,5 hPa 0,0 l/m 0 min 0 min 106 W/m 6,4 km/h (2 Bft) 93,62 %
20.06.2019 15:24 20,2 C 20,0 C 18,9 C 77 % 1012,5 hPa 0,0 l/m 0 min 0 min 120 W/m 6,4 km/h (2 Bft) 97,83 %
20.06.2019 15:26 20,2 C 19,4 C 18,9 C 77 % 1012,5 hPa 0,0 l/m 0 min 0 min 146 W/m 6,4 km/h (2 Bft) 97,87 %
20.06.2019 15:28 20,2 C 19,4 C 18,9 C 77 % 1012,6 hPa 0,0 l/m 0 min 2 min 170 W/m 12,9 km/h (3 Bft) 97,87 %
20.06.2019 15:30 20,1 C 19,4 C 18,9 C 76 % 1012,6 hPa 0,0 l/m 0 min 2 min 189 W/m 19,3 km/h (3 Bft) 95,74 %
20.06.2019 15:32 20,1 C 19,4 C 18,9 C 76 % 1012,6 hPa 0,0 l/m 0 min 2 min 199 W/m 9,7 km/h (2 Bft) 97,14 %
20.06.2019 15:34 20,0 C 19,4 C 18,9 C 76 % 1012,7 hPa 0,0 l/m 0 min 2 min 196 W/m 9,7 km/h (2 Bft) 97,87 %
20.06.2019 15:36 20,0 C 18,9 C 18,3 C 76 % 1012,6 hPa 0,0 l/m 0 min 2 min 182 W/m 6,4 km/h (2 Bft) 97,87 %
20.06.2019 15:38 19,9 C 18,3 C 18,3 C 77 % 1012,6 hPa 0,0 l/m 0 min 2 min 170 W/m 6,4 km/h (2 Bft) 97,87 %
20.06.2019 15:40 19,9 C 18,3 C 18,3 C 78 % 1012,7 hPa 0,0 l/m 0 min 2 min 160 W/m 6,4 km/h (2 Bft) 96,55 %
20.06.2019 15:42 19,9 C 18,3 C 18,3 C 78 % 1012,7 hPa 0,0 l/m 0 min 2 min 161 W/m 6,4 km/h (2 Bft) 97,87 %
20.06.2019 15:44 19,8 C 18,9 C 18,3 C 78 % 1012,7 hPa 0,0 l/m 0 min 2 min 174 W/m 9,7 km/h (2 Bft) 100,00 %
20.06.2019 15:46 19,8 C 17,8 C 17,8 C 78 % 1012,7 hPa 0,0 l/m 0 min 2 min 196 W/m 12,9 km/h (3 Bft) 97,87 %
20.06.2019 15:48 19,7 C 17,2 C 17,2 C 78 % 1012,8 hPa 0,0 l/m 0 min 2 min 216 W/m 12,9 km/h (3 Bft) 97,83 %
20.06.2019 15:50 19,7 C 17,2 C 16,7 C 79 % 1012,7 hPa 0,2 l/m 0 min 2 min 241 W/m 6,4 km/h (2 Bft) 97,87 %
20.06.2019 15:52 19,7 C 17,8 C 16,7 C 80 % 1012,7 hPa 0,0 l/m 0 min 2 min 263 W/m 3,2 km/h (1 Bft) 100,00 %
20.06.2019 15:54 19,7 C 17,8 C 16,7 C 81 % 1012,7 hPa 0,0 l/m 0 min 2 min 260 W/m 6,4 km/h (2 Bft) 100,00 %
20.06.2019 15:56 19,7 C 17,8 C 16,7 C 81 % 1012,7 hPa 0,0 l/m 0 min 2 min 250 W/m 6,4 km/h (2 Bft) 100,00 %
20.06.2019 15:58 19,6 C 17,8 C 17,2 C 81 % 1012,7 hPa 0,0 l/m 0 min 2 min 241 W/m 6,4 km/h (2 Bft) 95,74 %
20.06.2019 16:00 19,6 C 17,8 C 17,2 C 81 % 1012,8 hPa 0,0 l/m 0 min 0 min 239 W/m 9,7 km/h (2 Bft) 97,83 %
20.06.2019 16:02 19,6 C 18,3 C 17,2 C 81 % 1012,8 hPa 0,0 l/m 0 min 0 min 237 W/m 9,7 km/h (2 Bft) 97,87 %
20.06.2019 16:04 19,5 C 18,9 C 17,8 C 81 % 1012,8 hPa 0,0 l/m 0 min 2 min 224 W/m 16,1 km/h (3 Bft) 97,87 %
20.06.2019 16:06 19,5 C 18,9 C 17,8 C 81 % 1012,7 hPa 0,0 l/m 0 min 0 min 212 W/m 6,4 km/h (2 Bft) 97,87 %
20.06.2019 16:08 19,4 C 18,9 C 18,3 C 81 % 1012,8 hPa 0,0 l/m 0 min 0 min 198 W/m 3,2 km/h (1 Bft) 97,87 %
20.06.2019 16:10 19,4 C 19,4 C 18,3 C 81 % 1012,7 hPa 0,0 l/m 0 min 0 min 176 W/m 3,2 km/h (1 Bft) 97,83 %
20.06.2019 16:12 19,4 C 18,3 C 17,8 C 81 % 1012,8 hPa 0,0 l/m 0 min 2 min 169 W/m 6,4 km/h (2 Bft) 97,87 %
20.06.2019 16:14 19,4 C 17,8 C 17,2 C 81 % 1012,8 hPa 0,0 l/m 0 min 2 min 167 W/m 6,4 km/h (2 Bft) 95,74 %
20.06.2019 16:16 19,4 C 17,8 C 17,2 C 82 % 1012,8 hPa 0,0 l/m 0 min 2 min 176 W/m 6,4 km/h (2 Bft) 93,62 %
20.06.2019 16:18 19,4 C 18,3 C 17,2 C 82 % 1012,8 hPa 0,0 l/m 0 min 0 min 195 W/m 6,4 km/h (2 Bft) 97,87 %
20.06.2019 16:20 19,4 C 18,9 C 17,2 C 82 % 1012,8 hPa 0,0 l/m 0 min 0 min 216 W/m 3,2 km/h (1 Bft) 97,87 %
20.06.2019 16:22 19,3 C 18,9 C 17,8 C 82 % 1012,8 hPa 0,0 l/m 0 min 2 min 232 W/m 9,7 km/h (2 Bft) 97,83 %
20.06.2019 16:24 19,3 C 18,9 C 17,8 C 81 % 1012,7 hPa 0,0 l/m 0 min 0 min 235 W/m 6,4 km/h (2 Bft) 95,74 %
20.06.2019 16:26 19,3 C 18,9 C 17,8 C 80 % 1012,7 hPa 0,0 l/m 0 min 0 min 223 W/m 12,9 km/h (3 Bft) 97,87 %
20.06.2019 16:28 19,2 C 18,9 C 18,3 C 79 % 1012,8 hPa 0,0 l/m 0 min 0 min 200 W/m 9,7 km/h (2 Bft) 97,87 %
20.06.2019 16:30 19,2 C 19,4 C 18,3 C 79 % 1012,7 hPa 0,0 l/m 0 min 0 min 187 W/m 6,4 km/h (2 Bft) 97,87 %
20.06.2019 16:32 19,2 C 19,4 C 18,3 C 79 % 1012,6 hPa 0,0 l/m 0 min 0 min 176 W/m 6,4 km/h (2 Bft) 95,74 %
20.06.2019 16:34 19,2 C 19,4 C 18,3 C 79 % 1012,7 hPa 0,0 l/m 0 min 0 min 172 W/m 9,7 km/h (2 Bft) 97,83 %
20.06.2019 16:36 19,2 C 18,9 C 18,3 C 79 % 1012,8 hPa 0,0 l/m 0 min 0 min 180 W/m 9,7 km/h (2 Bft) 97,87 %
20.06.2019 16:38 19,2 C 18,9 C 18,3 C 79 % 1012,7 hPa 0,0 l/m 0 min 0 min 195 W/m 9,7 km/h (2 Bft) 97,87 %
20.06.2019 16:40 19,2 C 18,9 C 18,3 C 79 % 1012,7 hPa 0,0 l/m 0 min 0 min 204 W/m 9,7 km/h (2 Bft) 97,87 %
20.06.2019 16:42 19,2 C 19,4 C 18,3 C 79 % 1012,7 hPa 0,0 l/m 0 min 0 min 198 W/m 12,9 km/h (3 Bft) 97,87 %
20.06.2019 16:44 19,2 C 19,4 C 18,9 C 79 % 1012,7 hPa 0,0 l/m 0 min 0 min 184 W/m 6,4 km/h (2 Bft) 97,87 %
20.06.2019 16:46 19,2 C 18,9 C 18,3 C 79 % 1012,7 hPa 0,0 l/m 0 min 0 min 175 W/m 12,9 km/h (3 Bft) 95,65 %
20.06.2019 16:48 19,2 C 19,4 C 18,9 C 79 % 1012,8 hPa 0,0 l/m 0 min 0 min 171 W/m 6,4 km/h (2 Bft) 95,74 %
20.06.2019 16:50 19,2 C 19,4 C 18,9 C 79 % 1012,7 hPa 0,0 l/m 0 min 0 min 168 W/m 6,4 km/h (2 Bft) 100,00 %
20.06.2019 16:52 19,2 C 19,4 C 18,9 C 80 % 1012,7 hPa 0,0 l/m 0 min 0 min 163 W/m 9,7 km/h (2 Bft) 97,87 %
20.06.2019 16:54 19,2 C 19,4 C 18,9 C 80 % 1012,8 hPa 0,0 l/m 0 min 0 min 166 W/m 9,7 km/h (2 Bft) 97,87 %
20.06.2019 16:56 19,2 C 18,9 C 18,9 C 80 % 1012,7 hPa 0,0 l/m 0 min 0 min 166 W/m 9,7 km/h (2 Bft) 97,87 %
20.06.2019 16:58 19,2 C 19,4 C 18,9 C 80 % 1012,7 hPa 0,0 l/m 0 min 0 min 162 W/m 9,7 km/h (2 Bft) 100,00 %
20.06.2019 17:00 19,2 C 18,9 C 18,9 C 80 % 1012,7 hPa 0,0 l/m 0 min 0 min 157 W/m 6,4 km/h (2 Bft) 100,00 %
20.06.2019 17:02 19,2 C 18,9 C 18,9 C 80 % 1012,7 hPa 0,0 l/m 0 min 0 min 159 W/m 9,7 km/h (2 Bft) 97,14 %
20.06.2019 17:04 19,2 C 19,4 C 18,3 C 81 % 1012,6 hPa 0,0 l/m 0 min 0 min 172 W/m 9,7 km/h (2 Bft) 100,00 %
20.06.2019 17:06 19,2 C 19,4 C 18,3 C 80 % 1012,6 hPa 0,0 l/m 0 min 0 min 195 W/m 6,4 km/h (2 Bft) 100,00 %
20.06.2019 17:08 19,2 C 19,4 C 18,9 C 80 % 1012,6 hPa 0,0 l/m 0 min 0 min 222 W/m 6,4 km/h (2 Bft) 100,00 %
20.06.2019 17:10 19,3 C 19,4 C 18,9 C 81 % 1012,6 hPa 0,0 l/m 0 min 0 min 244 W/m 6,4 km/h (2 Bft) 100,00 %
20.06.2019 17:12 19,3 C 19,4 C 18,3 C 81 % 1012,6 hPa 0,0 l/m 0 min 0 min 258 W/m 9,7 km/h (2 Bft) 100,00 %
20.06.2019 17:14 19,3 C 19,4 C 18,9 C 81 % 1012,6 hPa 0,0 l/m 0 min 0 min 283 W/m 6,4 km/h (2 Bft) 100,00 %
20.06.2019 17:16 19,3 C 20,0 C 18,9 C 81 % 1012,6 hPa 0,0 l/m 0 min 0 min 325 W/m 9,7 km/h (2 Bft) 100,00 %
20.06.2019 17:18 19,3 C 20,6 C 19,4 C 80 % 1012,7 hPa 0,0 l/m 2 min 0 min 341 W/m 6,4 km/h (2 Bft) 97,87 %
20.06.2019 17:20 19,4 C 21,1 C 19,4 C 81 % 1012,7 hPa 0,0 l/m 2 min 0 min 352 W/m 3,2 km/h (1 Bft) 97,87 %
20.06.2019 17:22 19,5 C 21,1 C 19,4 C 81 % 1012,7 hPa 0,0 l/m 2 min 0 min 372 W/m 9,7 km/h (2 Bft) 95,74 %
20.06.2019 17:24 19,6 C 21,1 C 20,0 C 81 % 1012,7 hPa 0,0 l/m 2 min 0 min 380 W/m 12,9 km/h (3 Bft) 97,87 %
20.06.2019 17:26 19,6 C 21,1 C 20,0 C 80 % 1012,7 hPa 0,0 l/m 2 min 0 min 409 W/m 6,4 km/h (2 Bft) 97,83 %
20.06.2019 17:28 19,7 C 21,1 C 20,0 C 80 % 1012,7 hPa 0,0 l/m 2 min 0 min 401 W/m 9,7 km/h (2 Bft) 95,74 %
20.06.2019 17:30 19,8 C 21,1 C 20,0 C 80 % 1012,7 hPa 0,0 l/m 2 min 0 min 371 W/m 6,4 km/h (2 Bft) 100,00 %
20.06.2019 17:32 19,9 C 21,1 C 20,0 C 80 % 1012,7 hPa 0,0 l/m 0 min 0 min 311 W/m 6,4 km/h (2 Bft) 97,87 %
20.06.2019 17:34 19,9 C 21,1 C 20,0 C 79 % 1012,7 hPa 0,0 l/m 2 min 0 min 376 W/m 12,9 km/h (3 Bft) 97,87 %
20.06.2019 17:36 20,0 C 21,1 C 20,0 C 79 % 1012,7 hPa 0,0 l/m 2 min 0 min 405 W/m 9,7 km/h (2 Bft) 98,28 %
20.06.2019 17:38 20,1 C 21,1 C 20,0 C 79 % 1012,7 hPa 0,0 l/m 2 min 0 min 332 W/m 9,7 km/h (2 Bft) 97,14 %
20.06.2019 17:40 20,1 C 21,1 C 20,0 C 78 % 1012,6 hPa 0,0 l/m 2 min 0 min 449 W/m 9,7 km/h (2 Bft) 97,87 %
20.06.2019 17:42 20,2 C 21,1 C 20,0 C 78 % 1012,7 hPa 0,0 l/m 2 min 0 min 712 W/m 9,7 km/h (2 Bft) 97,87 %
20.06.2019 17:44 20,3 C 21,7 C 20,0 C 78 % 1012,7 hPa 0,0 l/m 2 min 0 min 535 W/m 12,9 km/h (3 Bft) 97,87 %
20.06.2019 17:46 20,4 C 21,7 C 20,0 C 78 % 1012,6 hPa 0,0 l/m 2 min 0 min 458 W/m 16,1 km/h (3 Bft) 95,74 %
20.06.2019 17:48 20,6 C 21,1 C 20,0 C 78 % 1012,6 hPa 0,0 l/m 2 min 0 min 456 W/m 9,7 km/h (2 Bft) 95,65 %
20.06.2019 17:50 20,6 C 20,6 C 20,0 C 77 % 1012,6 hPa 0,0 l/m 0 min 0 min 189 W/m 16,1 km/h (3 Bft) 97,87 %
20.06.2019 17:52 20,7 C 20,6 C 19,4 C 77 % 1012,7 hPa 0,0 l/m 0 min 0 min 214 W/m 9,7 km/h (2 Bft) 97,87 %
20.06.2019 17:54 20,7 C 20,0 C 19,4 C 77 % 1012,7 hPa 0,0 l/m 0 min 0 min 181 W/m 12,9 km/h (3 Bft) 97,87 %
20.06.2019 17:56 20,7 C 20,0 C 19,4 C 76 % 1012,8 hPa 0,0 l/m 0 min 0 min 162 W/m 9,7 km/h (2 Bft) 97,87 %
20.06.2019 17:58 20,7 C 20,0 C 19,4 C 76 % 1012,8 hPa 0,0 l/m 0 min 0 min 157 W/m 9,7 km/h (2 Bft) 95,74 %
20.06.2019 18:00 20,7 C 20,0 C 19,4 C 76 % 1012,8 hPa 0,0 l/m 0 min 0 min 160 W/m 12,9 km/h (3 Bft) 95,65 %
20.06.2019 18:02 20,7 C 20,0 C 19,4 C 77 % 1012,8 hPa 0,0 l/m 0 min 0 min 171 W/m 9,7 km/h (2 Bft) 97,87 %
20.06.2019 18:04 20,7 C 20,0 C 19,4 C 77 % 1012,8 hPa 0,0 l/m 0 min 0 min 189 W/m 6,4 km/h (2 Bft) 95,74 %
20.06.2019 18:08 20,6 C 20,6 C 19,4 C 77 % 1012,9 hPa 0,0 l/m 0 min 0 min 207 W/m 16,1 km/h (3 Bft) 96,81 %
20.06.2019 18:10 20,6 C 20,6 C 20,0 C 77 % 1012,8 hPa 0,0 l/m 0 min 0 min 210 W/m 6,4 km/h (2 Bft) 97,87 %
20.06.2019 18:12 20,7 C 20,6 C 20,0 C 78 % 1012,9 hPa 0,0 l/m 0 min 0 min 201 W/m 9,7 km/h (2 Bft) 93,48 %
20.06.2019 18:14 20,6 C 20,6 C 20,0 C 78 % 1012,8 hPa 0,0 l/m 0 min 0 min 176 W/m 9,7 km/h (2 Bft) 97,87 %
20.06.2019 18:16 20,6 C 20,6 C 20,0 C 78 % 1012,9 hPa 0,0 l/m 0 min 0 min 154 W/m 9,7 km/h (2 Bft) 97,87 %
20.06.2019 18:18 20,6 C 20,6 C 19,4 C 77 % 1012,9 hPa 0,0 l/m 0 min 0 min 145 W/m 9,7 km/h (2 Bft) 97,87 %
20.06.2019 18:20 20,6 C 20,0 C 19,4 C 77 % 1012,9 hPa 0,0 l/m 0 min 0 min 147 W/m 6,4 km/h (2 Bft) 97,87 %
20.06.2019 18:22 20,6 C 20,0 C 19,4 C 77 % 1013,0 hPa 0,0 l/m 0 min 0 min 160 W/m 12,9 km/h (3 Bft) 93,48 %
20.06.2019 18:24 20,5 C 20,0 C 19,4 C 76 % 1013,0 hPa 0,0 l/m 0 min 0 min 175 W/m 9,7 km/h (2 Bft) 97,87 %
20.06.2019 18:26 20,5 C 20,6 C 19,4 C 76 % 1012,9 hPa 0,0 l/m 0 min 0 min 171 W/m 9,7 km/h (2 Bft) 95,74 %
20.06.2019 18:28 20,5 C 20,6 C 20,0 C 77 % 1012,9 hPa 0,0 l/m 0 min 0 min 148 W/m 12,9 km/h (3 Bft) 97,87 %
20.06.2019 18:30 20,5 C 20,6 C 20,0 C 77 % 1012,9 hPa 0,0 l/m 0 min 0 min 115 W/m 6,4 km/h (2 Bft) 97,87 %
20.06.2019 18:32 20,6 C 20,0 C 19,4 C 78 % 1012,9 hPa 0,0 l/m 0 min 0 min 85 W/m 3,2 km/h (1 Bft) 95,74 %
20.06.2019 18:34 20,6 C 20,0 C 19,4 C 79 % 1013,0 hPa 0,0 l/m 0 min 0 min 61 W/m 6,4 km/h (2 Bft) 95,65 %
20.06.2019 18:36 20,5 C 19,4 C 18,9 C 79 % 1013,1 hPa 0,0 l/m 0 min 0 min 37 W/m 12,9 km/h (3 Bft) 96,23 %
20.06.2019 18:38 20,4 C 18,9 C 18,3 C 79 % 1013,2 hPa 0,0 l/m 0 min 2 min 20 W/m 12,9 km/h (3 Bft) 97,87 %
20.06.2019 18:40 20,3 C 18,3 C 17,2 C 79 % 1013,2 hPa 0,0 l/m 0 min 2 min 16 W/m 12,9 km/h (3 Bft) 97,87 %
20.06.2019 18:42 20,2 C 17,8 C 16,7 C 79 % 1013,2 hPa 0,0 l/m 0 min 2 min 14 W/m 9,7 km/h (2 Bft) 97,87 %
20.06.2019 18:44 20,0 C 16,7 C 16,1 C 80 % 1013,2 hPa 0,2 l/m 0 min 2 min 15 W/m 12,9 km/h (3 Bft) 95,74 %
20.06.2019 18:46 19,9 C 16,1 C 16,1 C 81 % 1013,2 hPa 0,0 l/m 0 min 2 min 18 W/m 12,9 km/h (3 Bft) 97,50 %
20.06.2019 18:48 19,7 C 15,6 C 15,6 C 81 % 1013,2 hPa 0,0 l/m 0 min 2 min 22 W/m 16,1 km/h (3 Bft) 97,87 %
20.06.2019 18:50 19,5 C 15,6 C 15,0 C 82 % 1013,2 hPa 0,2 l/m 0 min 2 min 26 W/m 9,7 km/h (2 Bft) 100,00 %
20.06.2019 18:52 19,4 C 15,6 C 15,0 C 82 % 1013,2 hPa 0,2 l/m 0 min 2 min 29 W/m 3,2 km/h (1 Bft) 100,00 %
20.06.2019 18:54 19,2 C 15,0 C 15,0 C 83 % 1013,2 hPa 0,0 l/m 0 min 2 min 35 W/m 3,2 km/h (1 Bft) 95,74 %
20.06.2019 18:56 19,1 C 15,0 C 15,0 C 84 % 1013,2 hPa 0,6 l/m 0 min 2 min 41 W/m 3,2 km/h (1 Bft) 100,00 %
20.06.2019 18:58 19,0 C 15,0 C 15,0 C 84 % 1013,2 hPa 0,6 l/m 0 min 2 min 45 W/m 0,0 km/h (0 Bft) 100,00 %
20.06.2019 19:00 18,9 C 15,0 C 15,0 C 85 % 1013,3 hPa 0,0 l/m 0 min 2 min 63 W/m 3,2 km/h (1 Bft) 97,87 %
20.06.2019 19:02 18,8 C 15,0 C 15,0 C 85 % 1013,2 hPa 0,0 l/m 0 min 2 min 82 W/m 0,0 km/h (0 Bft) 100,00 %
20.06.2019 19:04 18,7 C 15,6 C 15,0 C 86 % 1013,2 hPa 0,2 l/m 0 min 2 min 84 W/m 0,0 km/h (0 Bft) 97,87 %
20.06.2019 19:06 18,6 C 15,6 C 15,0 C 86 % 1013,2 hPa 0,0 l/m 0 min 2 min 70 W/m 3,2 km/h (1 Bft) 95,74 %
20.06.2019 19:08 18,4 C 15,6 C 15,0 C 87 % 1013,2 hPa 0,0 l/m 0 min 2 min 75 W/m 0,0 km/h (0 Bft) 100,00 %
20.06.2019 19:10 18,4 C 15,6 C 15,0 C 87 % 1013,2 hPa 0,0 l/m 0 min 2 min 85 W/m 0,0 km/h (0 Bft) 97,87 %
20.06.2019 19:12 18,3 C 15,6 C 15,6 C 87 % 1013,2 hPa 0,0 l/m 0 min 0 min 84 W/m 0,0 km/h (0 Bft) 100,00 %
20.06.2019 19:14 18,3 C 15,6 C 15,6 C 88 % 1013,2 hPa 0,0 l/m 0 min 0 min 102 W/m 0,0 km/h (0 Bft) 95,74 %
20.06.2019 19:16 18,2 C 16,1 C 15,6 C 88 % 1013,2 hPa 0,0 l/m 0 min 0 min 132 W/m 0,0 km/h (0 Bft) 97,56 %
20.06.2019 19:18 18,2 C 16,1 C 15,6 C 89 % 1013,2 hPa 0,0 l/m 0 min 0 min 141 W/m 0,0 km/h (0 Bft) 100,00 %
20.06.2019 19:20 18,1 C 16,1 C 15,6 C 89 % 1013,2 hPa 0,0 l/m 0 min 0 min 143 W/m 0,0 km/h (0 Bft) 97,87 %
20.06.2019 19:22 18,1 C 16,7 C 16,1 C 90 % 1013,2 hPa 0,0 l/m 2 min 0 min 204 W/m 3,2 km/h (1 Bft) 97,83 %
20.06.2019 19:24 18,1 C 16,7 C 16,1 C 90 % 1013,2 hPa 0,0 l/m 2 min 0 min 207 W/m 0,0 km/h (0 Bft) 97,87 %
20.06.2019 19:26 18,1 C 16,7 C 16,1 C 90 % 1013,2 hPa 0,0 l/m 0 min 0 min 163 W/m 0,0 km/h (0 Bft) 97,87 %
20.06.2019 19:28 18,1 C 16,7 C 16,1 C 91 % 1013,2 hPa 0,0 l/m 0 min 0 min 160 W/m 3,2 km/h (1 Bft) 97,87 %
20.06.2019 19:30 18,1 C 16,7 C 16,1 C 91 % 1013,2 hPa 0,0 l/m 0 min 0 min 155 W/m 3,2 km/h (1 Bft) 97,87 %
20.06.2019 19:32 18,1 C 16,1 C 16,1 C 91 % 1013,3 hPa 0,0 l/m 0 min 0 min 115 W/m 3,2 km/h (1 Bft) 98,11 %
20.06.2019 19:34 18,1 C 16,1 C 16,1 C 91 % 1013,3 hPa 0,0 l/m 0 min 0 min 75 W/m 0,0 km/h (0 Bft) 97,87 %
20.06.2019 19:36 18,0 C 16,1 C 16,1 C 91 % 1013,4 hPa 0,0 l/m 0 min 0 min 80 W/m 0,0 km/h (0 Bft) 95,74 %
20.06.2019 19:38 17,9 C 16,1 C 16,1 C 91 % 1013,3 hPa 0,0 l/m 0 min 0 min 116 W/m 0,0 km/h (0 Bft) 97,87 %
20.06.2019 19:40 17,9 C 16,1 C 16,1 C 91 % 1013,3 hPa 0,0 l/m 0 min 0 min 86 W/m 0,0 km/h (0 Bft) 97,87 %
20.06.2019 19:42 17,9 C 16,1 C 15,6 C 91 % 1013,4 hPa 0,0 l/m 0 min 0 min 51 W/m 0,0 km/h (0 Bft) 95,65 %
20.06.2019 19:44 17,9 C 15,6 C 15,6 C 91 % 1013,5 hPa 0,0 l/m 0 min 0 min 47 W/m 0,0 km/h (0 Bft) 97,87 %
20.06.2019 19:46 17,8 C 15,6 C 15,6 C 92 % 1013,5 hPa 0,0 l/m 0 min 0 min 39 W/m 0,0 km/h (0 Bft) 97,87 %
20.06.2019 19:48 17,8 C 15,6 C 15,0 C 92 % 1013,6 hPa 0,0 l/m 0 min 0 min 33 W/m 0,0 km/h (0 Bft) 97,87 %
20.06.2019 19:50 17,8 C 15,6 C 15,0 C 91 % 1013,6 hPa 0,0 l/m 0 min 0 min 34 W/m 0,0 km/h (0 Bft) 97,87 %
20.06.2019 19:52 17,8 C 15,6 C 15,0 C 92 % 1013,6 hPa 0,0 l/m 0 min 0 min 35 W/m 0,0 km/h (0 Bft) 97,87 %
20.06.2019 19:54 17,7 C 15,6 C 15,0 C 92 % 1013,6 hPa 0,0 l/m 0 min 0 min 33 W/m 0,0 km/h (0 Bft) 100,00 %
20.06.2019 19:56 17,7 C 15,6 C 15,0 C 92 % 1013,7 hPa 0,0 l/m 0 min 0 min 32 W/m 0,0 km/h (0 Bft) 97,87 %
20.06.2019 19:58 17,7 C 15,6 C 15,0 C 92 % 1013,7 hPa 0,0 l/m 0 min 0 min 33 W/m 0,0 km/h (0 Bft) 97,87 %
20.06.2019 20:00 17,6 C 15,6 C 15,0 C 92 % 1013,7 hPa 0,0 l/m 0 min 0 min 35 W/m 0,0 km/h (0 Bft) 97,87 %
20.06.2019 20:02 17,6 C 15,6 C 15,0 C 91 % 1013,8 hPa 0,0 l/m 0 min 0 min 34 W/m 0,0 km/h (0 Bft) 93,62 %
20.06.2019 20:04 17,6 C 15,6 C 15,0 C 91 % 1013,8 hPa 0,0 l/m 0 min 2 min 32 W/m 0,0 km/h (0 Bft) 93,62 %
20.06.2019 20:06 17,5 C 15,0 C 15,0 C 91 % 1013,8 hPa 0,0 l/m 0 min 2 min 28 W/m 0,0 km/h (0 Bft) 95,65 %
20.06.2019 20:08 17,5 C 15,6 C 15,0 C 91 % 1013,8 hPa 0,0 l/m 0 min 2 min 26 W/m 0,0 km/h (0 Bft) 91,49 %
20.06.2019 20:10 17,5 C 15,6 C 15,0 C 91 % 1013,8 hPa 0,0 l/m 0 min 0 min 26 W/m 0,0 km/h (0 Bft) 97,87 %
20.06.2019 20:12 17,4 C 15,6 C 15,0 C 91 % 1013,8 hPa 0,0 l/m 0 min 2 min 26 W/m 3,2 km/h (1 Bft) 97,87 %
20.06.2019 20:14 17,4 C 15,6 C 15,0 C 91 % 1013,8 hPa 0,2 l/m 0 min 2 min 26 W/m 3,2 km/h (1 Bft) 97,87 %
20.06.2019 20:16 17,4 C 15,0 C 15,0 C 91 % 1013,8 hPa 0,0 l/m 0 min 2 min 25 W/m 6,4 km/h (2 Bft) 97,87 %
20.06.2019 20:18 17,4 C 15,0 C 15,0 C 91 % 1013,9 hPa 0,0 l/m 0 min 2 min 21 W/m 3,2 km/h (1 Bft) 95,65 %
20.06.2019 20:20 17,3 C 15,0 C 15,0 C 91 % 1013,8 hPa 0,0 l/m 0 min 2 min 17 W/m 6,4 km/h (2 Bft) 95,74 %
20.06.2019 20:22 17,3 C 15,0 C 15,0 C 92 % 1013,9 hPa 0,0 l/m 0 min 2 min 14 W/m 6,4 km/h (2 Bft) 95,74 %
20.06.2019 20:24 17,3 C 15,0 C 15,0 C 92 % 1014,0 hPa 0,0 l/m 0 min 2 min 12 W/m 6,4 km/h (2 Bft) 97,87 %
20.06.2019 20:26 17,3 C 15,0 C 15,0 C 92 % 1013,9 hPa 0,0 l/m 0 min 2 min 12 W/m 3,2 km/h (1 Bft) 95,74 %
20.06.2019 20:28 17,3 C 15,0 C 15,0 C 92 % 1014,0 hPa 0,2 l/m 0 min 2 min 14 W/m 6,4 km/h (2 Bft) 97,83 %
20.06.2019 20:30 17,2 C 15,0 C 15,0 C 92 % 1014,1 hPa 0,0 l/m 0 min 2 min 18 W/m 3,2 km/h (1 Bft) 97,87 %
20.06.2019 20:32 17,2 C 15,0 C 15,0 C 92 % 1014,0 hPa 0,0 l/m 0 min 2 min 20 W/m 3,2 km/h (1 Bft) 97,87 %
20.06.2019 20:34 17,2 C 15,0 C 15,0 C 92 % 1014,1 hPa 0,0 l/m 0 min 2 min 24 W/m 0,0 km/h (0 Bft) 97,87 %
20.06.2019 20:36 17,2 C 15,0 C 15,0 C 92 % 1014,0 hPa 0,0 l/m 0 min 2 min 25 W/m 3,2 km/h (1 Bft) 95,74 %
20.06.2019 20:38 17,2 C 15,0 C 15,0 C 92 % 1013,9 hPa 0,0 l/m 0 min 2 min 20 W/m 0,0 km/h (0 Bft) 97,87 %
20.06.2019 20:40 17,2 C 15,0 C 15,0 C 92 % 1014,0 hPa 0,0 l/m 0 min 0 min 18 W/m 3,2 km/h (1 Bft) 97,83 %
20.06.2019 20:42 17,1 C 15,0 C 15,0 C 92 % 1014,0 hPa 0,0 l/m 0 min 0 min 16 W/m 3,2 km/h (1 Bft) 97,87 %
20.06.2019 20:44 17,1 C 15,0 C 15,0 C 92 % 1014,1 hPa 0,0 l/m 0 min 0 min 16 W/m 3,2 km/h (1 Bft) 97,87 %
20.06.2019 20:46 17,1 C 15,0 C 15,0 C 92 % 1014,2 hPa 0,0 l/m 0 min 0 min 19 W/m 0,0 km/h (0 Bft) 97,87 %
20.06.2019 20:48 17,1 C 15,0 C 15,0 C 93 % 1014,2 hPa 0,0 l/m 0 min 0 min 23 W/m 3,2 km/h (1 Bft) 97,87 %
20.06.2019 20:50 17,1 C 15,0 C 15,0 C 93 % 1014,2 hPa 0,0 l/m 0 min 0 min 26 W/m 3,2 km/h (1 Bft) 97,87 %
20.06.2019 20:52 17,1 C 15,6 C 15,0 C 93 % 1014,2 hPa 0,0 l/m 0 min 0 min 26 W/m 3,2 km/h (1 Bft) 97,83 %
20.06.2019 20:54 17,1 C 15,0 C 15,0 C 93 % 1014,1 hPa 0,0 l/m 0 min 0 min 23 W/m 3,2 km/h (1 Bft) 100,00 %
20.06.2019 20:56 17,1 C 15,0 C 15,0 C 93 % 1014,2 hPa 0,0 l/m 0 min 0 min 19 W/m 0,0 km/h (0 Bft) 95,74 %
20.06.2019 20:58 17,1 C 15,0 C 15,0 C 93 % 1014,3 hPa 0,0 l/m 0 min 0 min 20 W/m 0,0 km/h (0 Bft) 100,00 %
20.06.2019 21:00 17,0 C 15,0 C 15,0 C 93 % 1014,3 hPa 0,0 l/m 0 min 0 min 23 W/m 3,2 km/h (1 Bft) 100,00 %
20.06.2019 21:02 17,0 C 15,6 C 15,0 C 93 % 1014,3 hPa 0,0 l/m 0 min 0 min 27 W/m 0,0 km/h (0 Bft) 97,87 %
20.06.2019 21:04 17,0 C 15,6 C 15,0 C 93 % 1014,2 hPa 0,0 l/m 0 min 0 min 35 W/m 3,2 km/h (1 Bft) 97,83 %
20.06.2019 21:06 17,0 C 15,6 C 15,0 C 93 % 1014,3 hPa 0,0 l/m 0 min 0 min 37 W/m 3,2 km/h (1 Bft) 100,00 %
20.06.2019 21:08 16,9 C 15,6 C 15,0 C 93 % 1014,4 hPa 0,0 l/m 0 min 0 min 33 W/m 0,0 km/h (0 Bft) 96,00 %
20.06.2019 21:10 16,9 C 15,0 C 15,0 C 93 % 1014,4 hPa 0,0 l/m 0 min 0 min 30 W/m 0,0 km/h (0 Bft) 100,00 %
20.06.2019 21:12 16,9 C 15,0 C 15,0 C 93 % 1014,4 hPa 0,0 l/m 0 min 0 min 26 W/m 0,0 km/h (0 Bft) 100,00 %
20.06.2019 21:14 16,9 C 15,0 C 15,0 C 93 % 1014,4 hPa 0,0 l/m 0 min 0 min 24 W/m 3,2 km/h (1 Bft) 100,00 %
20.06.2019 21:16 16,9 C 15,0 C 15,0 C 93 % 1014,5 hPa 0,0 l/m 0 min 0 min 23 W/m 3,2 km/h (1 Bft) 100,00 %
20.06.2019 21:18 16,9 C 15,0 C 15,0 C 94 % 1014,5 hPa 0,0 l/m 0 min 0 min 23 W/m 3,2 km/h (1 Bft) 100,00 %
20.06.2019 21:20 16,8 C 15,0 C 15,0 C 94 % 1014,5 hPa 0,0 l/m 0 min 0 min 21 W/m 3,2 km/h (1 Bft) 100,00 %
20.06.2019 21:22 16,8 C 15,0 C 15,0 C 94 % 1014,5 hPa 0,0 l/m 0 min 0 min 20 W/m 0,0 km/h (0 Bft) 100,00 %
20.06.2019 21:24 16,8 C 15,0 C 15,0 C 94 % 1014,6 hPa 0,0 l/m 0 min 0 min 18 W/m 3,2 km/h (1 Bft) 100,00 %
20.06.2019 21:26 16,8 C 15,0 C 15,0 C 94 % 1014,5 hPa 0,0 l/m 0 min 0 min 16 W/m 3,2 km/h (1 Bft) 100,00 %
20.06.2019 21:28 16,7 C 15,0 C 15,0 C 94 % 1014,6 hPa 0,0 l/m 0 min 0 min 14 W/m 3,2 km/h (1 Bft) 97,83 %
20.06.2019 21:30 16,7 C 15,0 C 14,4 C 94 % 1014,7 hPa 0,0 l/m 0 min 0 min 12 W/m 3,2 km/h (1 Bft) 95,74 %
20.06.2019 21:32 16,7 C 15,0 C 14,4 C 94 % 1014,6 hPa 0,0 l/m 0 min 0 min 12 W/m 0,0 km/h (0 Bft) 93,62 %
20.06.2019 21:34 16,7 C 15,0 C 14,4 C 94 % 1014,6 hPa 0,0 l/m 0 min 0 min 11 W/m 0,0 km/h (0 Bft) 95,74 %
20.06.2019 21:36 16,7 C 14,4 C 14,4 C 94 % 1014,6 hPa 0,0 l/m 0 min 0 min 11 W/m 0,0 km/h (0 Bft) 95,74 %
20.06.2019 21:38 16,6 C 14,4 C 14,4 C 94 % 1014,6 hPa 0,0 l/m 0 min 0 min 9 W/m 0,0 km/h (0 Bft) 97,92 %
20.06.2019 21:40 16,6 C 14,4 C 14,4 C 94 % 1014,7 hPa 0,0 l/m 0 min 0 min 8 W/m 0,0 km/h (0 Bft) 97,87 %
20.06.2019 21:42 16,6 C 14,4 C 14,4 C 94 % 1014,7 hPa 0,0 l/m 0 min 0 min 7 W/m 0,0 km/h (0 Bft) 97,87 %
20.06.2019 21:44 16,6 C 14,4 C 14,4 C 94 % 1014,7 hPa 0,0 l/m 0 min 0 min 7 W/m 0,0 km/h (0 Bft) 95,74 %
20.06.2019 21:46 16,6 C 14,4 C 14,4 C 94 % 1014,7 hPa 0,0 l/m 0 min 0 min 6 W/m 0,0 km/h (0 Bft) 97,87 %
20.06.2019 21:48 16,5 C 14,4 C 14,4 C 94 % 1014,7 hPa 0,0 l/m 0 min 0 min 5 W/m 0,0 km/h (0 Bft) 97,87 %
20.06.2019 21:50 16,5 C 14,4 C 14,4 C 94 % 1014,9 hPa 0,0 l/m 0 min 0 min 2 W/m 0,0 km/h (0 Bft) 95,65 %
20.06.2019 21:52 16,4 C 14,4 C 14,4 C 94 % 1014,9 hPa 0,0 l/m 0 min 0 min 0 W/m 0,0 km/h (0 Bft) 95,74 %
20.06.2019 21:54 16,4 C 14,4 C 14,4 C 94 % 1014,9 hPa 0,0 l/m 0 min 0 min 0 W/m 0,0 km/h (0 Bft) 97,87 %
20.06.2019 21:56 16,4 C 14,4 C 14,4 C 94 % 1014,9 hPa 0,0 l/m 0 min 0 min 0 W/m 0,0 km/h (0 Bft) 93,62 %
20.06.2019 21:58 16,4 C 14,4 C 14,4 C 94 % 1014,9 hPa 0,0 l/m 0 min 0 min 0 W/m 0,0 km/h (0 Bft) 95,74 %
20.06.2019 22:00 16,3 C 14,4 C 14,4 C 94 % 1014,9 hPa 0,0 l/m 0 min 0 min 0 W/m 0,0 km/h (0 Bft) 93,48 %
20.06.2019 22:02 16,3 C 14,4 C 13,9 C 94 % 1014,9 hPa 0,0 l/m 0 min 0 min 0 W/m 3,2 km/h (1 Bft) 93,62 %
20.06.2019 22:04 16,3 C 14,4 C 13,9 C 94 % 1014,9 hPa 0,0 l/m 0 min 0 min 0 W/m 0,0 km/h (0 Bft) 95,74 %
20.06.2019 22:06 16,3 C 14,4 C 13,9 C 94 % 1015,0 hPa 0,0 l/m 0 min 0 min 0 W/m 0,0 km/h (0 Bft) 95,74 %
20.06.2019 22:08 16,3 C 14,4 C 13,9 C 94 % 1015,0 hPa 0,0 l/m 0 min 0 min 0 W/m 0,0 km/h (0 Bft) 95,74 %
20.06.2019 22:10 16,3 C 14,4 C 13,9 C 94 % 1015,1 hPa 0,0 l/m 0 min 0 min 0 W/m 0,0 km/h (0 Bft) 93,62 %
20.06.2019 22:12 16,2 C 14,4 C 14,4 C 94 % 1015,1 hPa 0,0 l/m 0 min 0 min 0 W/m 0,0 km/h (0 Bft) 95,65 %
20.06.2019 22:14 16,2 C 14,4 C 14,4 C 94 % 1015,1 hPa 0,0 l/m 0 min 0 min 0 W/m 0,0 km/h (0 Bft) 93,62 %
20.06.2019 22:16 16,2 C 14,4 C 14,4 C 94 % 1015,2 hPa 0,0 l/m 0 min 0 min 0 W/m 0,0 km/h (0 Bft) 95,74 %
20.06.2019 22:18 16,2 C 14,4 C 14,4 C 94 % 1015,2 hPa 0,0 l/m 0 min 0 min 0 W/m 0,0 km/h (0 Bft) 95,74 %
20.06.2019 22:20 16,2 C 14,4 C 13,9 C 94 % 1015,2 hPa 0,0 l/m 0 min 0 min 0 W/m 0,0 km/h (0 Bft) 91,49 %
20.06.2019 22:22 16,2 C 14,4 C 13,9 C 94 % 1015,2 hPa 0,0 l/m 0 min 0 min 0 W/m 0,0 km/h (0 Bft) 95,74 %
20.06.2019 22:24 16,1 C 14,4 C 13,9 C 94 % 1015,2 hPa 0,0 l/m 0 min 0 min 0 W/m 0,0 km/h (0 Bft) 95,65 %
20.06.2019 22:26 16,1 C 14,4 C 13,9 C 94 % 1015,3 hPa 0,0 l/m 0 min 0 min 0 W/m 0,0 km/h (0 Bft) 93,62 %
20.06.2019 22:28 16,1 C 13,9 C 13,9 C 94 % 1015,2 hPa 0,0 l/m 0 min 0 min 0 W/m 0,0 km/h (0 Bft) 95,74 %
20.06.2019 22:30 16,1 C 13,9 C 13,9 C 94 % 1015,2 hPa 0,0 l/m 0 min 0 min 0 W/m 0,0 km/h (0 Bft) 95,74 %
20.06.2019 22:32 16,1 C 13,9 C 13,9 C 94 % 1015,2 hPa 0,0 l/m 0 min 0 min 0 W/m 0,0 km/h (0 Bft) 95,74 %
20.06.2019 22:34 16,0 C 14,4 C 13,9 C 94 % 1015,2 hPa 0,0 l/m 0 min 0 min 0 W/m 0,0 km/h (0 Bft) 97,87 %
20.06.2019 22:36 16,0 C 13,9 C 13,9 C 94 % 1015,3 hPa 0,0 l/m 0 min 0 min 0 W/m 0,0 km/h (0 Bft) 97,83 %
20.06.2019 22:38 16,0 C 14,4 C 13,9 C 94 % 1015,3 hPa 0,0 l/m 0 min 0 min 0 W/m 0,0 km/h (0 Bft) 95,74 %
20.06.2019 22:40 16,0 C 14,4 C 13,9 C 94 % 1015,3 hPa 0,0 l/m 0 min 0 min 0 W/m 0,0 km/h (0 Bft) 97,87 %
20.06.2019 22:42 15,9 C 14,4 C 13,9 C 94 % 1015,3 hPa 0,0 l/m 0 min 0 min 0 W/m 0,0 km/h (0 Bft) 97,87 %
20.06.2019 22:44 15,9 C 14,4 C 13,9 C 94 % 1015,3 hPa 0,0 l/m 0 min 0 min 0 W/m 0,0 km/h (0 Bft) 97,87 %
20.06.2019 22:46 15,9 C 13,9 C 13,3 C 94 % 1015,4 hPa 0,0 l/m 0 min 0 min 0 W/m 0,0 km/h (0 Bft) 93,62 %
20.06.2019 22:48 15,9 C 13,9 C 13,3 C 94 % 1015,4 hPa 0,0 l/m 0 min 0 min 0 W/m 0,0 km/h (0 Bft) 97,83 %
20.06.2019 22:50 15,9 C 13,9 C 13,3 C 94 % 1015,4 hPa 0,0 l/m 0 min 0 min 0 W/m 0,0 km/h (0 Bft) 100,00 %
20.06.2019 22:52 15,8 C 13,9 C 13,3 C 94 % 1015,4 hPa 0,0 l/m 0 min 0 min 0 W/m 0,0 km/h (0 Bft) 100,00 %
20.06.2019 22:54 15,8 C 13,9 C 13,3 C 94 % 1015,4 hPa 0,0 l/m 0 min 0 min 0 W/m 0,0 km/h (0 Bft) 95,74 %
20.06.2019 22:56 15,8 C 13,9 C 13,3 C 94 % 1015,4 hPa 0,0 l/m 0 min 0 min 0 W/m 0,0 km/h (0 Bft) 97,87 %
20.06.2019 22:58 15,8 C 13,9 C 13,3 C 94 % 1015,4 hPa 0,0 l/m 0 min 0 min 0 W/m 0,0 km/h (0 Bft) 97,87 %
20.06.2019 23:00 15,7 C 13,9 C 13,3 C 94 % 1015,4 hPa 0,0 l/m 0 min 0 min 0 W/m 0,0 km/h (0 Bft) 97,83 %
20.06.2019 23:02 15,7 C 13,9 C 13,3 C 94 % 1015,4 hPa 0,0 l/m 0 min 0 min 0 W/m 0,0 km/h (0 Bft) 97,87 %
20.06.2019 23:04 15,7 C 13,9 C 13,3 C 94 % 1015,4 hPa 0,0 l/m 0 min 0 min 0 W/m 0,0 km/h (0 Bft) 97,87 %
20.06.2019 23:06 15,7 C 13,3 C 13,3 C 94 % 1015,4 hPa 0,0 l/m 0 min 0 min 0 W/m 0,0 km/h (0 Bft) 97,87 %
20.06.2019 23:08 15,6 C 13,3 C 13,3 C 94 % 1015,4 hPa 0,0 l/m 0 min 0 min 0 W/m 0,0 km/h (0 Bft) 97,87 %
20.06.2019 23:10 15,6 C 13,3 C 13,3 C 94 % 1015,4 hPa 0,0 l/m 0 min 0 min 0 W/m 0,0 km/h (0 Bft) 95,65 %
20.06.2019 23:12 15,6 C 13,3 C 13,3 C 94 % 1015,4 hPa 0,0 l/m 0 min 0 min 0 W/m 0,0 km/h (0 Bft) 97,87 %
20.06.2019 23:14 15,6 C 13,3 C 13,3 C 94 % 1015,5 hPa 0,0 l/m 0 min 0 min 0 W/m 0,0 km/h (0 Bft) 97,87 %
20.06.2019 23:16 15,5 C 13,9 C 13,3 C 94 % 1015,6 hPa 0,0 l/m 0 min 0 min 0 W/m 0,0 km/h (0 Bft) 97,87 %
20.06.2019 23:18 15,5 C 13,9 C 13,3 C 94 % 1015,6 hPa 0,0 l/m 0 min 0 min 0 W/m 0,0 km/h (0 Bft) 97,87 %
20.06.2019 23:20 15,5 C 13,9 C 13,3 C 94 % 1015,6 hPa 0,0 l/m 0 min 0 min 0 W/m 0,0 km/h (0 Bft) 95,74 %
20.06.2019 23:22 15,4 C 13,9 C 13,3 C 94 % 1015,6 hPa 0,0 l/m 0 min 0 min 0 W/m 0,0 km/h (0 Bft) 97,83 %
20.06.2019 23:24 15,4 C 13,9 C 13,3 C 94 % 1015,7 hPa 0,0 l/m 0 min 0 min 0 W/m 0,0 km/h (0 Bft) 97,87 %
20.06.2019 23:26 15,4 C 13,9 C 13,3 C 94 % 1015,6 hPa 0,0 l/m 0 min 0 min 0 W/m 0,0 km/h (0 Bft) 97,87 %
20.06.2019 23:28 15,4 C 13,9 C 13,3 C 94 % 1015,7 hPa 0,0 l/m 0 min 0 min 0 W/m 0,0 km/h (0 Bft) 95,74 %
20.06.2019 23:30 15,4 C 13,9 C 13,3 C 94 % 1015,7 hPa 0,0 l/m 0 min 0 min 0 W/m 0,0 km/h (0 Bft) 97,87 %
20.06.2019 23:32 15,4 C 13,9 C 13,3 C 94 % 1015,6 hPa 0,0 l/m 0 min 0 min 0 W/m 0,0 km/h (0 Bft) 97,87 %
20.06.2019 23:34 15,4 C 13,9 C 13,3 C 94 % 1015,8 hPa 0,0 l/m 0 min 0 min 0 W/m 0,0 km/h (0 Bft) 97,83 %
20.06.2019 23:36 15,3 C 13,9 C 13,9 C 94 % 1015,7 hPa 0,0 l/m 0 min 0 min 0 W/m 0,0 km/h (0 Bft) 95,74 %
20.06.2019 23:38 15,3 C 13,9 C 13,9 C 94 % 1015,7 hPa 0,0 l/m 0 min 0 min 0 W/m 0,0 km/h (0 Bft) 97,87 %
20.06.2019 23:40 15,3 C 13,9 C 13,9 C 95 % 1015,8 hPa 0,0 l/m 0 min 0 min 0 W/m 0,0 km/h (0 Bft) 97,87 %
20.06.2019 23:42 15,3 C 13,9 C 13,9 C 95 % 1015,8 hPa 0,0 l/m 0 min 0 min 0 W/m 0,0 km/h (0 Bft) 100,00 %
20.06.2019 23:44 15,3 C 13,9 C 13,9 C 95 % 1015,8 hPa 0,0 l/m 0 min 0 min 0 W/m 0,0 km/h (0 Bft) 95,74 %
20.06.2019 23:46 15,3 C 13,9 C 13,9 C 95 % 1015,8 hPa 0,0 l/m 0 min 0 min 0 W/m 0,0 km/h (0 Bft) 100,00 %
20.06.2019 23:48 15,3 C 13,9 C 13,9 C 95 % 1015,8 hPa 0,0 l/m 0 min 0 min 0 W/m 0,0 km/h (0 Bft) 100,00 %
20.06.2019 23:50 15,3 C 13,9 C 13,9 C 95 % 1015,9 hPa 0,0 l/m 0 min 0 min 0 W/m 0,0 km/h (0 Bft) 100,00 %
20.06.2019 23:52 15,3 C 13,9 C 13,9 C 95 % 1015,9 hPa 0,0 l/m 0 min 0 min 0 W/m 0,0 km/h (0 Bft) 97,87 %
20.06.2019 23:54 15,3 C 13,9 C 13,9 C 95 % 1015,9 hPa 0,0 l/m 0 min 0 min 0 W/m 0,0 km/h (0 Bft) 100,00 %
20.06.2019 23:56 15,3 C 13,9 C 13,9 C 95 % 1015,8 hPa 0,0 l/m 0 min 0 min 0 W/m 0,0 km/h (0 Bft) 100,00 %
20.06.2019 23:58 15,3 C 13,9 C 13,9 C 95 % 1015,8 hPa 0,0 l/m 0 min 0 min 0 W/m 0,0 km/h (0 Bft) 100,00 %
_ Min-Zeit 23:36 23:06 22:46 12:54 00:48 - - - - 00:08 12:20
Minimum _ 15,3 C 13,3 C 13,3 C 69 % 1008,6 hPa - - - - 0,0 km/h (0 Bft) 89,36 %
_ Max-Zeit 13:04 13:00 12:50 06:16 23:50 18:56 12:08 00:46 11:20 12:18 00:26
Maximum _ 23,2 C 28,9 C 27,8 C 98 % 1015,9 hPa 0,6 l/m 4 min 2 min 880 W/m 35,4 km/h
S-SO (5 Bft)
100,00 %
Durchschnitt _ 18,2 C 18,0 C 17,4 C 88 % 1011,8 hPa #2,6 l/m #2:52 h #2:08 h 211 W/m 7,3 km/h (2 Bft) 97,52 %
© 2019 W. Hausmann